<?xml version="1.0" encoding="UTF-8" standalone="no" ?>
<gpx xmlns="http://www.topografix.com/GPX/1/1" xmlns:xsi="http://www.w3.org/2001/XMLSchema-instance" xsi:schemaLocation="http://www.topografix.com/GPX/1/1 http://www.topografix.com/GPX/1/1/gpx.xsd" version="1.1" creator="VisuGPX - https://www.visugpx.com">
  <metadata>
    <name>Bouc Bel Air - Etoile - Pilon - Puech - BBA </name>
    <desc><![CDATA[3 sommets de la chaîne de l\'étoile
2 passages au col Sainte Anne]]></desc>
  </metadata>
  <trk>
    <name><![CDATA[Etoile-Pilon-Grand Puech ]]></name>
    <cmt><![CDATA[25 avr. 2013 13:55:50]]></cmt>
    <desc><![CDATA[]]></desc>
    <trkseg>
      <trkpt lat="43.44058" lon="5.40849">
        <ele>139</ele>
        <time>2013-04-25T11:56:51Z</time>
      </trkpt>
      <trkpt lat="43.44106" lon="5.40863">
        <ele>180</ele>
        <time>2013-04-25T11:58:33Z</time>
      </trkpt>
      <trkpt lat="43.44101" lon="5.40926">
        <ele>177</ele>
        <time>2013-04-25T11:59:08Z</time>
      </trkpt>
      <trkpt lat="43.44058" lon="5.40949">
        <ele>176</ele>
        <time>2013-04-25T11:59:26Z</time>
      </trkpt>
      <trkpt lat="43.44016" lon="5.40975">
        <ele>177</ele>
        <time>2013-04-25T11:59:38Z</time>
      </trkpt>
      <trkpt lat="43.4397" lon="5.40994">
        <ele>180</ele>
        <time>2013-04-25T11:59:50Z</time>
      </trkpt>
      <trkpt lat="43.43926" lon="5.41023">
        <ele>180</ele>
        <time>2013-04-25T12:00:02Z</time>
      </trkpt>
      <trkpt lat="43.43884" lon="5.4106">
        <ele>181</ele>
        <time>2013-04-25T12:00:14Z</time>
      </trkpt>
      <trkpt lat="43.4384" lon="5.41083">
        <ele>181</ele>
        <time>2013-04-25T12:00:26Z</time>
      </trkpt>
      <trkpt lat="43.43795" lon="5.41099">
        <ele>181</ele>
        <time>2013-04-25T12:00:40Z</time>
      </trkpt>
      <trkpt lat="43.43666" lon="5.41074">
        <ele>183</ele>
        <time>2013-04-25T12:01:21Z</time>
      </trkpt>
      <trkpt lat="43.43659" lon="5.4101">
        <ele>185</ele>
        <time>2013-04-25T12:01:32Z</time>
      </trkpt>
      <trkpt lat="43.4365" lon="5.40949">
        <ele>187</ele>
        <time>2013-04-25T12:01:41Z</time>
      </trkpt>
      <trkpt lat="43.43605" lon="5.40951">
        <ele>188</ele>
        <time>2013-04-25T12:01:50Z</time>
      </trkpt>
      <trkpt lat="43.43555" lon="5.40961">
        <ele>188</ele>
        <time>2013-04-25T12:02:00Z</time>
      </trkpt>
      <trkpt lat="43.43509" lon="5.40971">
        <ele>188</ele>
        <time>2013-04-25T12:02:09Z</time>
      </trkpt>
      <trkpt lat="43.4346" lon="5.4098">
        <ele>188</ele>
        <time>2013-04-25T12:02:19Z</time>
      </trkpt>
      <trkpt lat="43.43452" lon="5.40913">
        <ele>189</ele>
        <time>2013-04-25T12:02:28Z</time>
      </trkpt>
      <trkpt lat="43.4346" lon="5.40852">
        <ele>189</ele>
        <time>2013-04-25T12:02:35Z</time>
      </trkpt>
      <trkpt lat="43.43474" lon="5.40791">
        <ele>189</ele>
        <time>2013-04-25T12:02:42Z</time>
      </trkpt>
      <trkpt lat="43.43492" lon="5.40733">
        <ele>188</ele>
        <time>2013-04-25T12:02:48Z</time>
      </trkpt>
      <trkpt lat="43.4352" lon="5.40675">
        <ele>188</ele>
        <time>2013-04-25T12:02:55Z</time>
      </trkpt>
      <trkpt lat="43.43545" lon="5.40621">
        <ele>187</ele>
        <time>2013-04-25T12:03:01Z</time>
      </trkpt>
      <trkpt lat="43.43567" lon="5.40558">
        <ele>187</ele>
        <time>2013-04-25T12:03:08Z</time>
      </trkpt>
      <trkpt lat="43.43588" lon="5.40496">
        <ele>186</ele>
        <time>2013-04-25T12:03:15Z</time>
      </trkpt>
      <trkpt lat="43.43603" lon="5.40432">
        <ele>185</ele>
        <time>2013-04-25T12:03:22Z</time>
      </trkpt>
      <trkpt lat="43.43618" lon="5.40374">
        <ele>184</ele>
        <time>2013-04-25T12:03:27Z</time>
      </trkpt>
      <trkpt lat="43.43572" lon="5.40388">
        <ele>183</ele>
        <time>2013-04-25T12:03:32Z</time>
      </trkpt>
      <trkpt lat="43.43527" lon="5.40395">
        <ele>183</ele>
        <time>2013-04-25T12:03:43Z</time>
      </trkpt>
      <trkpt lat="43.43481" lon="5.40396">
        <ele>184</ele>
        <time>2013-04-25T12:03:53Z</time>
      </trkpt>
      <trkpt lat="43.43435" lon="5.40381">
        <ele>185</ele>
        <time>2013-04-25T12:04:03Z</time>
      </trkpt>
      <trkpt lat="43.43389" lon="5.40364">
        <ele>186</ele>
        <time>2013-04-25T12:04:12Z</time>
      </trkpt>
      <trkpt lat="43.43345" lon="5.40348">
        <ele>186</ele>
        <time>2013-04-25T12:04:21Z</time>
      </trkpt>
      <trkpt lat="43.43297" lon="5.40346">
        <ele>186</ele>
        <time>2013-04-25T12:04:31Z</time>
      </trkpt>
      <trkpt lat="43.43247" lon="5.40344">
        <ele>187</ele>
        <time>2013-04-25T12:04:42Z</time>
      </trkpt>
      <trkpt lat="43.43203" lon="5.4032">
        <ele>189</ele>
        <time>2013-04-25T12:04:54Z</time>
      </trkpt>
      <trkpt lat="43.43159" lon="5.40304">
        <ele>190</ele>
        <time>2013-04-25T12:05:05Z</time>
      </trkpt>
      <trkpt lat="43.43115" lon="5.40273">
        <ele>191</ele>
        <time>2013-04-25T12:05:16Z</time>
      </trkpt>
      <trkpt lat="43.43068" lon="5.40257">
        <ele>191</ele>
        <time>2013-04-25T12:05:26Z</time>
      </trkpt>
      <trkpt lat="43.43023" lon="5.40259">
        <ele>192</ele>
        <time>2013-04-25T12:05:36Z</time>
      </trkpt>
      <trkpt lat="43.4298" lon="5.40279">
        <ele>192</ele>
        <time>2013-04-25T12:05:48Z</time>
      </trkpt>
      <trkpt lat="43.42951" lon="5.40225">
        <ele>193</ele>
        <time>2013-04-25T12:05:58Z</time>
      </trkpt>
      <trkpt lat="43.42931" lon="5.40169">
        <ele>193</ele>
        <time>2013-04-25T12:06:06Z</time>
      </trkpt>
      <trkpt lat="43.42934" lon="5.40105">
        <ele>194</ele>
        <time>2013-04-25T12:06:14Z</time>
      </trkpt>
      <trkpt lat="43.42953" lon="5.40045">
        <ele>194</ele>
        <time>2013-04-25T12:06:23Z</time>
      </trkpt>
      <trkpt lat="43.42973" lon="5.39989">
        <ele>194</ele>
        <time>2013-04-25T12:06:34Z</time>
      </trkpt>
      <trkpt lat="43.43012" lon="5.39954">
        <ele>195</ele>
        <time>2013-04-25T12:06:52Z</time>
      </trkpt>
      <trkpt lat="43.43045" lon="5.39911">
        <ele>196</ele>
        <time>2013-04-25T12:07:12Z</time>
      </trkpt>
      <trkpt lat="43.43002" lon="5.39935">
        <ele>197</ele>
        <time>2013-04-25T12:07:42Z</time>
      </trkpt>
      <trkpt lat="43.42974" lon="5.39989">
        <ele>196</ele>
        <time>2013-04-25T12:07:54Z</time>
      </trkpt>
      <trkpt lat="43.42954" lon="5.40046">
        <ele>196</ele>
        <time>2013-04-25T12:08:03Z</time>
      </trkpt>
      <trkpt lat="43.42933" lon="5.40108">
        <ele>196</ele>
        <time>2013-04-25T12:08:12Z</time>
      </trkpt>
      <trkpt lat="43.42931" lon="5.40173">
        <ele>195</ele>
        <time>2013-04-25T12:08:20Z</time>
      </trkpt>
      <trkpt lat="43.42946" lon="5.40236">
        <ele>195</ele>
        <time>2013-04-25T12:08:29Z</time>
      </trkpt>
      <trkpt lat="43.42975" lon="5.40287">
        <ele>195</ele>
        <time>2013-04-25T12:08:38Z</time>
      </trkpt>
      <trkpt lat="43.42966" lon="5.40348">
        <ele>196</ele>
        <time>2013-04-25T12:08:50Z</time>
      </trkpt>
      <trkpt lat="43.42922" lon="5.4037">
        <ele>197</ele>
        <time>2013-04-25T12:09:02Z</time>
      </trkpt>
      <trkpt lat="43.42905" lon="5.40311">
        <ele>198</ele>
        <time>2013-04-25T12:09:16Z</time>
      </trkpt>
      <trkpt lat="43.42876" lon="5.40262">
        <ele>200</ele>
        <time>2013-04-25T12:09:30Z</time>
      </trkpt>
      <trkpt lat="43.42835" lon="5.4023">
        <ele>202</ele>
        <time>2013-04-25T12:09:44Z</time>
      </trkpt>
      <trkpt lat="43.42791" lon="5.40208">
        <ele>204</ele>
        <time>2013-04-25T12:09:55Z</time>
      </trkpt>
      <trkpt lat="43.42744" lon="5.40201">
        <ele>204</ele>
        <time>2013-04-25T12:10:06Z</time>
      </trkpt>
      <trkpt lat="43.42745" lon="5.40266">
        <ele>204</ele>
        <time>2013-04-25T12:10:14Z</time>
      </trkpt>
      <trkpt lat="43.4277" lon="5.40318">
        <ele>203</ele>
        <time>2013-04-25T12:10:21Z</time>
      </trkpt>
      <trkpt lat="43.42769" lon="5.40388">
        <ele>202</ele>
        <time>2013-04-25T12:10:28Z</time>
      </trkpt>
      <trkpt lat="43.42749" lon="5.40453">
        <ele>202</ele>
        <time>2013-04-25T12:10:37Z</time>
      </trkpt>
      <trkpt lat="43.42773" lon="5.4051">
        <ele>202</ele>
        <time>2013-04-25T12:10:48Z</time>
      </trkpt>
      <trkpt lat="43.42794" lon="5.40566">
        <ele>202</ele>
        <time>2013-04-25T12:10:58Z</time>
      </trkpt>
      <trkpt lat="43.42811" lon="5.40628">
        <ele>203</ele>
        <time>2013-04-25T12:11:08Z</time>
      </trkpt>
      <trkpt lat="43.42828" lon="5.40691">
        <ele>204</ele>
        <time>2013-04-25T12:11:17Z</time>
      </trkpt>
      <trkpt lat="43.42848" lon="5.40755">
        <ele>204</ele>
        <time>2013-04-25T12:11:25Z</time>
      </trkpt>
      <trkpt lat="43.42866" lon="5.40818">
        <ele>205</ele>
        <time>2013-04-25T12:11:33Z</time>
      </trkpt>
      <trkpt lat="43.42885" lon="5.40877">
        <ele>205</ele>
        <time>2013-04-25T12:11:40Z</time>
      </trkpt>
      <trkpt lat="43.4289" lon="5.4094">
        <ele>205</ele>
        <time>2013-04-25T12:11:47Z</time>
      </trkpt>
      <trkpt lat="43.42891" lon="5.41008">
        <ele>205</ele>
        <time>2013-04-25T12:11:55Z</time>
      </trkpt>
      <trkpt lat="43.42886" lon="5.41086">
        <ele>205</ele>
        <time>2013-04-25T12:12:06Z</time>
      </trkpt>
      <trkpt lat="43.42875" lon="5.41151">
        <ele>205</ele>
        <time>2013-04-25T12:12:16Z</time>
      </trkpt>
      <trkpt lat="43.42869" lon="5.41217">
        <ele>205</ele>
        <time>2013-04-25T12:12:27Z</time>
      </trkpt>
      <trkpt lat="43.42869" lon="5.41282">
        <ele>206</ele>
        <time>2013-04-25T12:12:37Z</time>
      </trkpt>
      <trkpt lat="43.42869" lon="5.41347">
        <ele>207</ele>
        <time>2013-04-25T12:12:47Z</time>
      </trkpt>
      <trkpt lat="43.42868" lon="5.41414">
        <ele>210</ele>
        <time>2013-04-25T12:12:57Z</time>
      </trkpt>
      <trkpt lat="43.42873" lon="5.4148">
        <ele>211</ele>
        <time>2013-04-25T12:13:07Z</time>
      </trkpt>
      <trkpt lat="43.42874" lon="5.41543">
        <ele>212</ele>
        <time>2013-04-25T12:13:16Z</time>
      </trkpt>
      <trkpt lat="43.42871" lon="5.41606">
        <ele>213</ele>
        <time>2013-04-25T12:13:25Z</time>
      </trkpt>
      <trkpt lat="43.42873" lon="5.41673">
        <ele>213</ele>
        <time>2013-04-25T12:13:33Z</time>
      </trkpt>
      <trkpt lat="43.42874" lon="5.41738">
        <ele>213</ele>
        <time>2013-04-25T12:13:39Z</time>
      </trkpt>
      <trkpt lat="43.42874" lon="5.41802">
        <ele>212</ele>
        <time>2013-04-25T12:13:44Z</time>
      </trkpt>
      <trkpt lat="43.42874" lon="5.41864">
        <ele>212</ele>
        <time>2013-04-25T12:13:49Z</time>
      </trkpt>
      <trkpt lat="43.42894" lon="5.41924">
        <ele>211</ele>
        <time>2013-04-25T12:13:58Z</time>
      </trkpt>
      <trkpt lat="43.42886" lon="5.41989">
        <ele>211</ele>
        <time>2013-04-25T12:14:10Z</time>
      </trkpt>
      <trkpt lat="43.42885" lon="5.42051">
        <ele>211</ele>
        <time>2013-04-25T12:14:20Z</time>
      </trkpt>
      <trkpt lat="43.42884" lon="5.42114">
        <ele>212</ele>
        <time>2013-04-25T12:14:29Z</time>
      </trkpt>
      <trkpt lat="43.4288" lon="5.42181">
        <ele>212</ele>
        <time>2013-04-25T12:14:39Z</time>
      </trkpt>
      <trkpt lat="43.42883" lon="5.42248">
        <ele>213</ele>
        <time>2013-04-25T12:14:50Z</time>
      </trkpt>
      <trkpt lat="43.42873" lon="5.42309">
        <ele>214</ele>
        <time>2013-04-25T12:15:01Z</time>
      </trkpt>
      <trkpt lat="43.42859" lon="5.42373">
        <ele>214</ele>
        <time>2013-04-25T12:15:12Z</time>
      </trkpt>
      <trkpt lat="43.42855" lon="5.42438">
        <ele>215</ele>
        <time>2013-04-25T12:15:25Z</time>
      </trkpt>
      <trkpt lat="43.42858" lon="5.42501">
        <ele>217</ele>
        <time>2013-04-25T12:15:40Z</time>
      </trkpt>
      <trkpt lat="43.42825" lon="5.42454">
        <ele>218</ele>
        <time>2013-04-25T12:15:50Z</time>
      </trkpt>
      <trkpt lat="43.42792" lon="5.42408">
        <ele>218</ele>
        <time>2013-04-25T12:15:57Z</time>
      </trkpt>
      <trkpt lat="43.42761" lon="5.42349">
        <ele>219</ele>
        <time>2013-04-25T12:16:05Z</time>
      </trkpt>
      <trkpt lat="43.42733" lon="5.42296">
        <ele>220</ele>
        <time>2013-04-25T12:16:12Z</time>
      </trkpt>
      <trkpt lat="43.42702" lon="5.42251">
        <ele>221</ele>
        <time>2013-04-25T12:16:21Z</time>
      </trkpt>
      <trkpt lat="43.42676" lon="5.42191">
        <ele>222</ele>
        <time>2013-04-25T12:16:37Z</time>
      </trkpt>
      <trkpt lat="43.42668" lon="5.42126">
        <ele>222</ele>
        <time>2013-04-25T12:16:47Z</time>
      </trkpt>
      <trkpt lat="43.4267" lon="5.42062">
        <ele>223</ele>
        <time>2013-04-25T12:17:01Z</time>
      </trkpt>
      <trkpt lat="43.42641" lon="5.42012">
        <ele>225</ele>
        <time>2013-04-25T12:17:15Z</time>
      </trkpt>
      <trkpt lat="43.42596" lon="5.42007">
        <ele>228</ele>
        <time>2013-04-25T12:17:31Z</time>
      </trkpt>
      <trkpt lat="43.42562" lon="5.41965">
        <ele>229</ele>
        <time>2013-04-25T12:17:47Z</time>
      </trkpt>
      <trkpt lat="43.42518" lon="5.41941">
        <ele>231</ele>
        <time>2013-04-25T12:18:02Z</time>
      </trkpt>
      <trkpt lat="43.42484" lon="5.41982">
        <ele>234</ele>
        <time>2013-04-25T12:18:22Z</time>
      </trkpt>
      <trkpt lat="43.42454" lon="5.42029">
        <ele>237</ele>
        <time>2013-04-25T12:18:43Z</time>
      </trkpt>
      <trkpt lat="43.42443" lon="5.42091">
        <ele>237</ele>
        <time>2013-04-25T12:19:00Z</time>
      </trkpt>
      <trkpt lat="43.42442" lon="5.42154">
        <ele>239</ele>
        <time>2013-04-25T12:19:21Z</time>
      </trkpt>
      <trkpt lat="43.424" lon="5.42185">
        <ele>243</ele>
        <time>2013-04-25T12:19:41Z</time>
      </trkpt>
      <trkpt lat="43.42364" lon="5.4223">
        <ele>246</ele>
        <time>2013-04-25T12:19:50Z</time>
      </trkpt>
      <trkpt lat="43.42322" lon="5.42256">
        <ele>247</ele>
        <time>2013-04-25T12:19:59Z</time>
      </trkpt>
      <trkpt lat="43.42279" lon="5.42285">
        <ele>248</ele>
        <time>2013-04-25T12:20:11Z</time>
      </trkpt>
      <trkpt lat="43.42254" lon="5.42337">
        <ele>249</ele>
        <time>2013-04-25T12:20:22Z</time>
      </trkpt>
      <trkpt lat="43.42216" lon="5.42378">
        <ele>251</ele>
        <time>2013-04-25T12:20:33Z</time>
      </trkpt>
      <trkpt lat="43.42186" lon="5.42429">
        <ele>253</ele>
        <time>2013-04-25T12:20:47Z</time>
      </trkpt>
      <trkpt lat="43.4214" lon="5.42452">
        <ele>254</ele>
        <time>2013-04-25T12:21:00Z</time>
      </trkpt>
      <trkpt lat="43.42096" lon="5.42441">
        <ele>255</ele>
        <time>2013-04-25T12:21:10Z</time>
      </trkpt>
      <trkpt lat="43.42055" lon="5.42406">
        <ele>255</ele>
        <time>2013-04-25T12:21:21Z</time>
      </trkpt>
      <trkpt lat="43.42028" lon="5.42458">
        <ele>256</ele>
        <time>2013-04-25T12:21:39Z</time>
      </trkpt>
      <trkpt lat="43.41988" lon="5.42494">
        <ele>258</ele>
        <time>2013-04-25T12:21:57Z</time>
      </trkpt>
      <trkpt lat="43.41945" lon="5.42514">
        <ele>259</ele>
        <time>2013-04-25T12:22:15Z</time>
      </trkpt>
      <trkpt lat="43.41924" lon="5.42569">
        <ele>260</ele>
        <time>2013-04-25T12:22:33Z</time>
      </trkpt>
      <trkpt lat="43.41878" lon="5.42579">
        <ele>262</ele>
        <time>2013-04-25T12:22:51Z</time>
      </trkpt>
      <trkpt lat="43.41839" lon="5.42615">
        <ele>265</ele>
        <time>2013-04-25T12:23:09Z</time>
      </trkpt>
      <trkpt lat="43.41797" lon="5.42643">
        <ele>267</ele>
        <time>2013-04-25T12:23:28Z</time>
      </trkpt>
      <trkpt lat="43.41753" lon="5.42628">
        <ele>269</ele>
        <time>2013-04-25T12:23:46Z</time>
      </trkpt>
      <trkpt lat="43.41709" lon="5.42608">
        <ele>273</ele>
        <time>2013-04-25T12:24:06Z</time>
      </trkpt>
      <trkpt lat="43.4168" lon="5.42658">
        <ele>278</ele>
        <time>2013-04-25T12:24:26Z</time>
      </trkpt>
      <trkpt lat="43.41643" lon="5.42697">
        <ele>281</ele>
        <time>2013-04-25T12:24:45Z</time>
      </trkpt>
      <trkpt lat="43.41598" lon="5.42685">
        <ele>282</ele>
        <time>2013-04-25T12:24:59Z</time>
      </trkpt>
      <trkpt lat="43.41551" lon="5.42681">
        <ele>284</ele>
        <time>2013-04-25T12:25:14Z</time>
      </trkpt>
      <trkpt lat="43.41524" lon="5.42741">
        <ele>286</ele>
        <time>2013-04-25T12:25:27Z</time>
      </trkpt>
      <trkpt lat="43.41515" lon="5.42803">
        <ele>290</ele>
        <time>2013-04-25T12:25:37Z</time>
      </trkpt>
      <trkpt lat="43.41508" lon="5.42865">
        <ele>293</ele>
        <time>2013-04-25T12:25:47Z</time>
      </trkpt>
      <trkpt lat="43.41502" lon="5.42931">
        <ele>295</ele>
        <time>2013-04-25T12:25:57Z</time>
      </trkpt>
      <trkpt lat="43.41468" lon="5.42979">
        <ele>297</ele>
        <time>2013-04-25T12:26:11Z</time>
      </trkpt>
      <trkpt lat="43.41467" lon="5.42915">
        <ele>298</ele>
        <time>2013-04-25T12:26:28Z</time>
      </trkpt>
      <trkpt lat="43.41462" lon="5.42853">
        <ele>300</ele>
        <time>2013-04-25T12:26:41Z</time>
      </trkpt>
      <trkpt lat="43.41456" lon="5.42789">
        <ele>300</ele>
        <time>2013-04-25T12:26:48Z</time>
      </trkpt>
      <trkpt lat="43.41455" lon="5.4272">
        <ele>301</ele>
        <time>2013-04-25T12:26:54Z</time>
      </trkpt>
      <trkpt lat="43.41459" lon="5.42657">
        <ele>301</ele>
        <time>2013-04-25T12:27:00Z</time>
      </trkpt>
      <trkpt lat="43.41466" lon="5.42595">
        <ele>300</ele>
        <time>2013-04-25T12:27:07Z</time>
      </trkpt>
      <trkpt lat="43.41421" lon="5.42588">
        <ele>299</ele>
        <time>2013-04-25T12:27:15Z</time>
      </trkpt>
      <trkpt lat="43.41375" lon="5.42576">
        <ele>298</ele>
        <time>2013-04-25T12:27:24Z</time>
      </trkpt>
      <trkpt lat="43.41343" lon="5.42526">
        <ele>297</ele>
        <time>2013-04-25T12:27:34Z</time>
      </trkpt>
      <trkpt lat="43.41302" lon="5.42493">
        <ele>296</ele>
        <time>2013-04-25T12:27:44Z</time>
      </trkpt>
      <trkpt lat="43.41257" lon="5.42492">
        <ele>296</ele>
        <time>2013-04-25T12:27:56Z</time>
      </trkpt>
      <trkpt lat="43.4123" lon="5.42544">
        <ele>296</ele>
        <time>2013-04-25T12:28:07Z</time>
      </trkpt>
      <trkpt lat="43.41197" lon="5.42587">
        <ele>297</ele>
        <time>2013-04-25T12:28:19Z</time>
      </trkpt>
      <trkpt lat="43.41151" lon="5.4261">
        <ele>299</ele>
        <time>2013-04-25T12:28:31Z</time>
      </trkpt>
      <trkpt lat="43.4111" lon="5.42643">
        <ele>300</ele>
        <time>2013-04-25T12:28:44Z</time>
      </trkpt>
      <trkpt lat="43.41084" lon="5.42694">
        <ele>301</ele>
        <time>2013-04-25T12:28:59Z</time>
      </trkpt>
      <trkpt lat="43.41044" lon="5.42727">
        <ele>303</ele>
        <time>2013-04-25T12:29:16Z</time>
      </trkpt>
      <trkpt lat="43.40998" lon="5.42738">
        <ele>304</ele>
        <time>2013-04-25T12:29:31Z</time>
      </trkpt>
      <trkpt lat="43.40952" lon="5.42746">
        <ele>306</ele>
        <time>2013-04-25T12:29:44Z</time>
      </trkpt>
      <trkpt lat="43.40904" lon="5.42748">
        <ele>309</ele>
        <time>2013-04-25T12:30:46Z</time>
      </trkpt>
      <trkpt lat="43.40858" lon="5.42749">
        <ele>310</ele>
        <time>2013-04-25T12:30:58Z</time>
      </trkpt>
      <trkpt lat="43.40812" lon="5.42738">
        <ele>311</ele>
        <time>2013-04-25T12:31:10Z</time>
      </trkpt>
      <trkpt lat="43.40764" lon="5.42756">
        <ele>313</ele>
        <time>2013-04-25T12:31:21Z</time>
      </trkpt>
      <trkpt lat="43.40719" lon="5.42771">
        <ele>315</ele>
        <time>2013-04-25T12:31:36Z</time>
      </trkpt>
      <trkpt lat="43.40677" lon="5.42803">
        <ele>317</ele>
        <time>2013-04-25T12:31:53Z</time>
      </trkpt>
      <trkpt lat="43.40634" lon="5.42827">
        <ele>318</ele>
        <time>2013-04-25T12:32:07Z</time>
      </trkpt>
      <trkpt lat="43.40588" lon="5.42819">
        <ele>320</ele>
        <time>2013-04-25T12:32:22Z</time>
      </trkpt>
      <trkpt lat="43.40557" lon="5.42774">
        <ele>321</ele>
        <time>2013-04-25T12:32:36Z</time>
      </trkpt>
      <trkpt lat="43.4055" lon="5.4271">
        <ele>323</ele>
        <time>2013-04-25T12:32:53Z</time>
      </trkpt>
      <trkpt lat="43.40512" lon="5.42676">
        <ele>326</ele>
        <time>2013-04-25T12:33:10Z</time>
      </trkpt>
      <trkpt lat="43.4048" lon="5.42629">
        <ele>328</ele>
        <time>2013-04-25T12:33:32Z</time>
      </trkpt>
      <trkpt lat="43.40442" lon="5.42596">
        <ele>330</ele>
        <time>2013-04-25T12:33:54Z</time>
      </trkpt>
      <trkpt lat="43.40399" lon="5.42627">
        <ele>333</ele>
        <time>2013-04-25T12:34:12Z</time>
      </trkpt>
      <trkpt lat="43.40432" lon="5.42583">
        <ele>335</ele>
        <time>2013-04-25T12:34:42Z</time>
      </trkpt>
      <trkpt lat="43.40477" lon="5.42565">
        <ele>339</ele>
        <time>2013-04-25T12:35:04Z</time>
      </trkpt>
      <trkpt lat="43.40456" lon="5.42509">
        <ele>347</ele>
        <time>2013-04-25T12:36:04Z</time>
      </trkpt>
      <trkpt lat="43.40415" lon="5.42485">
        <ele>354</ele>
        <time>2013-04-25T12:36:36Z</time>
      </trkpt>
      <trkpt lat="43.40376" lon="5.42517">
        <ele>359</ele>
        <time>2013-04-25T12:36:56Z</time>
      </trkpt>
      <trkpt lat="43.40338" lon="5.42554">
        <ele>363</ele>
        <time>2013-04-25T12:37:13Z</time>
      </trkpt>
      <trkpt lat="43.40294" lon="5.42574">
        <ele>367</ele>
        <time>2013-04-25T12:37:28Z</time>
      </trkpt>
      <trkpt lat="43.40257" lon="5.42535">
        <ele>370</ele>
        <time>2013-04-25T12:37:47Z</time>
      </trkpt>
      <trkpt lat="43.40266" lon="5.42471">
        <ele>374</ele>
        <time>2013-04-25T12:37:58Z</time>
      </trkpt>
      <trkpt lat="43.4025" lon="5.4241">
        <ele>378</ele>
        <time>2013-04-25T12:38:11Z</time>
      </trkpt>
      <trkpt lat="43.40221" lon="5.42357">
        <ele>381</ele>
        <time>2013-04-25T12:38:30Z</time>
      </trkpt>
      <trkpt lat="43.4017" lon="5.42361">
        <ele>382</ele>
        <time>2013-04-25T12:38:39Z</time>
      </trkpt>
      <trkpt lat="43.40155" lon="5.42303">
        <ele>383</ele>
        <time>2013-04-25T12:38:58Z</time>
      </trkpt>
      <trkpt lat="43.40156" lon="5.42237">
        <ele>385</ele>
        <time>2013-04-25T12:39:10Z</time>
      </trkpt>
      <trkpt lat="43.40151" lon="5.42175">
        <ele>386</ele>
        <time>2013-04-25T12:39:38Z</time>
      </trkpt>
      <trkpt lat="43.40149" lon="5.42109">
        <ele>387</ele>
        <time>2013-04-25T12:39:45Z</time>
      </trkpt>
      <trkpt lat="43.40144" lon="5.4204">
        <ele>388</ele>
        <time>2013-04-25T12:39:52Z</time>
      </trkpt>
      <trkpt lat="43.40141" lon="5.41972">
        <ele>389</ele>
        <time>2013-04-25T12:39:59Z</time>
      </trkpt>
      <trkpt lat="43.40142" lon="5.41903">
        <ele>387</ele>
        <time>2013-04-25T12:40:07Z</time>
      </trkpt>
      <trkpt lat="43.40135" lon="5.41834">
        <ele>385</ele>
        <time>2013-04-25T12:40:17Z</time>
      </trkpt>
      <trkpt lat="43.40116" lon="5.4177">
        <ele>381</ele>
        <time>2013-04-25T12:40:24Z</time>
      </trkpt>
      <trkpt lat="43.401" lon="5.4171">
        <ele>378</ele>
        <time>2013-04-25T12:40:29Z</time>
      </trkpt>
      <trkpt lat="43.40102" lon="5.41647">
        <ele>374</ele>
        <time>2013-04-25T12:40:34Z</time>
      </trkpt>
      <trkpt lat="43.40139" lon="5.41596">
        <ele>369</ele>
        <time>2013-04-25T12:40:40Z</time>
      </trkpt>
      <trkpt lat="43.40157" lon="5.41537">
        <ele>367</ele>
        <time>2013-04-25T12:40:48Z</time>
      </trkpt>
      <trkpt lat="43.40183" lon="5.41482">
        <ele>364</ele>
        <time>2013-04-25T12:41:01Z</time>
      </trkpt>
      <trkpt lat="43.40212" lon="5.41432">
        <ele>360</ele>
        <time>2013-04-25T12:41:10Z</time>
      </trkpt>
      <trkpt lat="43.40246" lon="5.41389">
        <ele>358</ele>
        <time>2013-04-25T12:41:18Z</time>
      </trkpt>
      <trkpt lat="43.40203" lon="5.41406">
        <ele>356</ele>
        <time>2013-04-25T12:41:55Z</time>
      </trkpt>
      <trkpt lat="43.40162" lon="5.41438">
        <ele>354</ele>
        <time>2013-04-25T12:42:02Z</time>
      </trkpt>
      <trkpt lat="43.40115" lon="5.41458">
        <ele>351</ele>
        <time>2013-04-25T12:42:09Z</time>
      </trkpt>
      <trkpt lat="43.40067" lon="5.41469">
        <ele>349</ele>
        <time>2013-04-25T12:42:18Z</time>
      </trkpt>
      <trkpt lat="43.40018" lon="5.41468">
        <ele>346</ele>
        <time>2013-04-25T12:42:27Z</time>
      </trkpt>
      <trkpt lat="43.40024" lon="5.41404">
        <ele>345</ele>
        <time>2013-04-25T12:42:44Z</time>
      </trkpt>
      <trkpt lat="43.40036" lon="5.41344">
        <ele>342</ele>
        <time>2013-04-25T12:43:03Z</time>
      </trkpt>
      <trkpt lat="43.40083" lon="5.4132">
        <ele>342</ele>
        <time>2013-04-25T12:43:25Z</time>
      </trkpt>
      <trkpt lat="43.40096" lon="5.4126">
        <ele>342</ele>
        <time>2013-04-25T12:43:35Z</time>
      </trkpt>
      <trkpt lat="43.40071" lon="5.41201">
        <ele>342</ele>
        <time>2013-04-25T12:43:58Z</time>
      </trkpt>
      <trkpt lat="43.4008" lon="5.41138">
        <ele>342</ele>
        <time>2013-04-25T12:44:08Z</time>
      </trkpt>
      <trkpt lat="43.40075" lon="5.41072">
        <ele>342</ele>
        <time>2013-04-25T12:44:19Z</time>
      </trkpt>
      <trkpt lat="43.40078" lon="5.41007">
        <ele>343</ele>
        <time>2013-04-25T12:44:31Z</time>
      </trkpt>
      <trkpt lat="43.40079" lon="5.40943">
        <ele>345</ele>
        <time>2013-04-25T12:44:54Z</time>
      </trkpt>
      <trkpt lat="43.40033" lon="5.40937">
        <ele>349</ele>
        <time>2013-04-25T12:45:31Z</time>
      </trkpt>
      <trkpt lat="43.39998" lon="5.4098">
        <ele>351</ele>
        <time>2013-04-25T12:45:44Z</time>
      </trkpt>
      <trkpt lat="43.39953" lon="5.41002">
        <ele>353</ele>
        <time>2013-04-25T12:45:55Z</time>
      </trkpt>
      <trkpt lat="43.39928" lon="5.41054">
        <ele>356</ele>
        <time>2013-04-25T12:46:15Z</time>
      </trkpt>
      <trkpt lat="43.39886" lon="5.41081">
        <ele>360</ele>
        <time>2013-04-25T12:46:39Z</time>
      </trkpt>
      <trkpt lat="43.39849" lon="5.41117">
        <ele>364</ele>
        <time>2013-04-25T12:47:04Z</time>
      </trkpt>
      <trkpt lat="43.39815" lon="5.41159">
        <ele>370</ele>
        <time>2013-04-25T12:47:40Z</time>
      </trkpt>
      <trkpt lat="43.39789" lon="5.4121">
        <ele>376</ele>
        <time>2013-04-25T12:48:15Z</time>
      </trkpt>
      <trkpt lat="43.39754" lon="5.4125">
        <ele>383</ele>
        <time>2013-04-25T12:48:52Z</time>
      </trkpt>
      <trkpt lat="43.3972" lon="5.41291">
        <ele>387</ele>
        <time>2013-04-25T12:49:20Z</time>
      </trkpt>
      <trkpt lat="43.39688" lon="5.41335">
        <ele>394</ele>
        <time>2013-04-25T12:49:54Z</time>
      </trkpt>
      <trkpt lat="43.39648" lon="5.41365">
        <ele>402</ele>
        <time>2013-04-25T12:50:28Z</time>
      </trkpt>
      <trkpt lat="43.39605" lon="5.41389">
        <ele>407</ele>
        <time>2013-04-25T12:50:51Z</time>
      </trkpt>
      <trkpt lat="43.39563" lon="5.41413">
        <ele>411</ele>
        <time>2013-04-25T12:51:07Z</time>
      </trkpt>
      <trkpt lat="43.39517" lon="5.41404">
        <ele>416</ele>
        <time>2013-04-25T12:51:28Z</time>
      </trkpt>
      <trkpt lat="43.39472" lon="5.41418">
        <ele>419</ele>
        <time>2013-04-25T12:51:51Z</time>
      </trkpt>
      <trkpt lat="43.39444" lon="5.41466">
        <ele>423</ele>
        <time>2013-04-25T12:52:08Z</time>
      </trkpt>
      <trkpt lat="43.39411" lon="5.41509">
        <ele>427</ele>
        <time>2013-04-25T12:52:20Z</time>
      </trkpt>
      <trkpt lat="43.39367" lon="5.41529">
        <ele>430</ele>
        <time>2013-04-25T12:52:34Z</time>
      </trkpt>
      <trkpt lat="43.39325" lon="5.41558">
        <ele>433</ele>
        <time>2013-04-25T12:52:49Z</time>
      </trkpt>
      <trkpt lat="43.39281" lon="5.4158">
        <ele>435</ele>
        <time>2013-04-25T12:53:05Z</time>
      </trkpt>
      <trkpt lat="43.39235" lon="5.41581">
        <ele>437</ele>
        <time>2013-04-25T12:53:21Z</time>
      </trkpt>
      <trkpt lat="43.3919" lon="5.41598">
        <ele>442</ele>
        <time>2013-04-25T12:53:39Z</time>
      </trkpt>
      <trkpt lat="43.39144" lon="5.41599">
        <ele>444</ele>
        <time>2013-04-25T12:54:01Z</time>
      </trkpt>
      <trkpt lat="43.39097" lon="5.4161">
        <ele>448</ele>
        <time>2013-04-25T12:54:23Z</time>
      </trkpt>
      <trkpt lat="43.39064" lon="5.41654">
        <ele>451</ele>
        <time>2013-04-25T12:54:48Z</time>
      </trkpt>
      <trkpt lat="43.39058" lon="5.41717">
        <ele>454</ele>
        <time>2013-04-25T12:55:08Z</time>
      </trkpt>
      <trkpt lat="43.39036" lon="5.41773">
        <ele>458</ele>
        <time>2013-04-25T12:55:28Z</time>
      </trkpt>
      <trkpt lat="43.38996" lon="5.41801">
        <ele>461</ele>
        <time>2013-04-25T12:55:47Z</time>
      </trkpt>
      <trkpt lat="43.3895" lon="5.41796">
        <ele>466</ele>
        <time>2013-04-25T12:56:07Z</time>
      </trkpt>
      <trkpt lat="43.38904" lon="5.41788">
        <ele>469</ele>
        <time>2013-04-25T12:56:29Z</time>
      </trkpt>
      <trkpt lat="43.38862" lon="5.4181">
        <ele>474</ele>
        <time>2013-04-25T12:56:50Z</time>
      </trkpt>
      <trkpt lat="43.3882" lon="5.41837">
        <ele>479</ele>
        <time>2013-04-25T12:57:13Z</time>
      </trkpt>
      <trkpt lat="43.38794" lon="5.41889">
        <ele>483</ele>
        <time>2013-04-25T12:57:35Z</time>
      </trkpt>
      <trkpt lat="43.38807" lon="5.4195">
        <ele>487</ele>
        <time>2013-04-25T12:57:57Z</time>
      </trkpt>
      <trkpt lat="43.38797" lon="5.42011">
        <ele>491</ele>
        <time>2013-04-25T12:58:22Z</time>
      </trkpt>
      <trkpt lat="43.38753" lon="5.42029">
        <ele>494</ele>
        <time>2013-04-25T12:58:42Z</time>
      </trkpt>
      <trkpt lat="43.38707" lon="5.42036">
        <ele>499</ele>
        <time>2013-04-25T12:59:05Z</time>
      </trkpt>
      <trkpt lat="43.38669" lon="5.42003">
        <ele>502</ele>
        <time>2013-04-25T12:59:24Z</time>
      </trkpt>
      <trkpt lat="43.38625" lon="5.4199">
        <ele>506</ele>
        <time>2013-04-25T12:59:45Z</time>
      </trkpt>
      <trkpt lat="43.38589" lon="5.4203">
        <ele>511</ele>
        <time>2013-04-25T13:00:12Z</time>
      </trkpt>
      <trkpt lat="43.38571" lon="5.4209">
        <ele>513</ele>
        <time>2013-04-25T13:00:32Z</time>
      </trkpt>
      <trkpt lat="43.38552" lon="5.42147">
        <ele>517</ele>
        <time>2013-04-25T13:00:52Z</time>
      </trkpt>
      <trkpt lat="43.38562" lon="5.42208">
        <ele>521</ele>
        <time>2013-04-25T13:01:14Z</time>
      </trkpt>
      <trkpt lat="43.38592" lon="5.42257">
        <ele>524</ele>
        <time>2013-04-25T13:01:32Z</time>
      </trkpt>
      <trkpt lat="43.38562" lon="5.42305">
        <ele>526</ele>
        <time>2013-04-25T13:01:51Z</time>
      </trkpt>
      <trkpt lat="43.38541" lon="5.42362">
        <ele>532</ele>
        <time>2013-04-25T13:02:10Z</time>
      </trkpt>
      <trkpt lat="43.38515" lon="5.42413">
        <ele>535</ele>
        <time>2013-04-25T13:02:30Z</time>
      </trkpt>
      <trkpt lat="43.38502" lon="5.42475">
        <ele>538</ele>
        <time>2013-04-25T13:02:50Z</time>
      </trkpt>
      <trkpt lat="43.3852" lon="5.42535">
        <ele>541</ele>
        <time>2013-04-25T13:03:08Z</time>
      </trkpt>
      <trkpt lat="43.38487" lon="5.42578">
        <ele>544</ele>
        <time>2013-04-25T13:03:26Z</time>
      </trkpt>
      <trkpt lat="43.38476" lon="5.42642">
        <ele>547</ele>
        <time>2013-04-25T13:03:45Z</time>
      </trkpt>
      <trkpt lat="43.3849" lon="5.42704">
        <ele>551</ele>
        <time>2013-04-25T13:04:01Z</time>
      </trkpt>
      <trkpt lat="43.38538" lon="5.42711">
        <ele>554</ele>
        <time>2013-04-25T13:04:19Z</time>
      </trkpt>
      <trkpt lat="43.38583" lon="5.42698">
        <ele>556</ele>
        <time>2013-04-25T13:04:27Z</time>
      </trkpt>
      <trkpt lat="43.38623" lon="5.42732">
        <ele>558</ele>
        <time>2013-04-25T13:04:36Z</time>
      </trkpt>
      <trkpt lat="43.38604" lon="5.4279">
        <ele>560</ele>
        <time>2013-04-25T13:04:51Z</time>
      </trkpt>
      <trkpt lat="43.38572" lon="5.42833">
        <ele>561</ele>
        <time>2013-04-25T13:05:05Z</time>
      </trkpt>
      <trkpt lat="43.38528" lon="5.42856">
        <ele>562</ele>
        <time>2013-04-25T13:05:20Z</time>
      </trkpt>
      <trkpt lat="43.38502" lon="5.42908">
        <ele>562</ele>
        <time>2013-04-25T13:05:33Z</time>
      </trkpt>
      <trkpt lat="43.3851" lon="5.4297">
        <ele>562</ele>
        <time>2013-04-25T13:05:42Z</time>
      </trkpt>
      <trkpt lat="43.3854" lon="5.43027">
        <ele>563</ele>
        <time>2013-04-25T13:05:47Z</time>
      </trkpt>
      <trkpt lat="43.38565" lon="5.43089">
        <ele>562</ele>
        <time>2013-04-25T13:05:53Z</time>
      </trkpt>
      <trkpt lat="43.38588" lon="5.43145">
        <ele>562</ele>
        <time>2013-04-25T13:06:00Z</time>
      </trkpt>
      <trkpt lat="43.38607" lon="5.43204">
        <ele>561</ele>
        <time>2013-04-25T13:06:10Z</time>
      </trkpt>
      <trkpt lat="43.38631" lon="5.43259">
        <ele>561</ele>
        <time>2013-04-25T13:06:24Z</time>
      </trkpt>
      <trkpt lat="43.38664" lon="5.43303">
        <ele>562</ele>
        <time>2013-04-25T13:06:41Z</time>
      </trkpt>
      <trkpt lat="43.38697" lon="5.43349">
        <ele>563</ele>
        <time>2013-04-25T13:07:01Z</time>
      </trkpt>
      <trkpt lat="43.38731" lon="5.43395">
        <ele>564</ele>
        <time>2013-04-25T13:07:15Z</time>
      </trkpt>
      <trkpt lat="43.38752" lon="5.43451">
        <ele>567</ele>
        <time>2013-04-25T13:07:35Z</time>
      </trkpt>
      <trkpt lat="43.38765" lon="5.43513">
        <ele>569</ele>
        <time>2013-04-25T13:08:01Z</time>
      </trkpt>
      <trkpt lat="43.3879" lon="5.43565">
        <ele>573</ele>
        <time>2013-04-25T13:08:24Z</time>
      </trkpt>
      <trkpt lat="43.3882" lon="5.43613">
        <ele>577</ele>
        <time>2013-04-25T13:08:42Z</time>
      </trkpt>
      <trkpt lat="43.3885" lon="5.4366">
        <ele>580</ele>
        <time>2013-04-25T13:09:01Z</time>
      </trkpt>
      <trkpt lat="43.38892" lon="5.43685">
        <ele>584</ele>
        <time>2013-04-25T13:09:24Z</time>
      </trkpt>
      <trkpt lat="43.3893" lon="5.4372">
        <ele>590</ele>
        <time>2013-04-25T13:09:46Z</time>
      </trkpt>
      <trkpt lat="43.38972" lon="5.43745">
        <ele>593</ele>
        <time>2013-04-25T13:10:08Z</time>
      </trkpt>
      <trkpt lat="43.39017" lon="5.43761">
        <ele>598</ele>
        <time>2013-04-25T13:10:30Z</time>
      </trkpt>
      <trkpt lat="43.39063" lon="5.43769">
        <ele>602</ele>
        <time>2013-04-25T13:10:54Z</time>
      </trkpt>
      <trkpt lat="43.39109" lon="5.43767">
        <ele>607</ele>
        <time>2013-04-25T13:11:21Z</time>
      </trkpt>
      <trkpt lat="43.39154" lon="5.43773">
        <ele>613</ele>
        <time>2013-04-25T13:11:59Z</time>
      </trkpt>
      <trkpt lat="43.39115" lon="5.43808">
        <ele>619</ele>
        <time>2013-04-25T13:12:36Z</time>
      </trkpt>
      <trkpt lat="43.39113" lon="5.4387">
        <ele>626</ele>
        <time>2013-04-25T13:13:10Z</time>
      </trkpt>
      <trkpt lat="43.39105" lon="5.43877">
        <ele>647</ele>
        <time>2013-04-25T13:15:06Z</time>
      </trkpt>
      <trkpt lat="43.39115" lon="5.43814">
        <ele>639</ele>
        <time>2013-04-25T13:17:28Z</time>
      </trkpt>
      <trkpt lat="43.39159" lon="5.43785">
        <ele>632</ele>
        <time>2013-04-25T13:17:37Z</time>
      </trkpt>
      <trkpt lat="43.39184" lon="5.43733">
        <ele>632</ele>
        <time>2013-04-25T13:17:55Z</time>
      </trkpt>
      <trkpt lat="43.39192" lon="5.43669">
        <ele>618</ele>
        <time>2013-04-25T13:19:11Z</time>
      </trkpt>
      <trkpt lat="43.39197" lon="5.43606">
        <ele>613</ele>
        <time>2013-04-25T13:19:23Z</time>
      </trkpt>
      <trkpt lat="43.39199" lon="5.43542">
        <ele>608</ele>
        <time>2013-04-25T13:19:42Z</time>
      </trkpt>
      <trkpt lat="43.39194" lon="5.43479">
        <ele>602</ele>
        <time>2013-04-25T13:20:00Z</time>
      </trkpt>
      <trkpt lat="43.39192" lon="5.43412">
        <ele>598</ele>
        <time>2013-04-25T13:20:15Z</time>
      </trkpt>
      <trkpt lat="43.39195" lon="5.43347">
        <ele>593</ele>
        <time>2013-04-25T13:20:25Z</time>
      </trkpt>
      <trkpt lat="43.39202" lon="5.43282">
        <ele>587</ele>
        <time>2013-04-25T13:20:38Z</time>
      </trkpt>
      <trkpt lat="43.39199" lon="5.43217">
        <ele>580</ele>
        <time>2013-04-25T13:20:53Z</time>
      </trkpt>
      <trkpt lat="43.39187" lon="5.43153">
        <ele>574</ele>
        <time>2013-04-25T13:21:02Z</time>
      </trkpt>
      <trkpt lat="43.39182" lon="5.43089">
        <ele>571</ele>
        <time>2013-04-25T13:21:25Z</time>
      </trkpt>
      <trkpt lat="43.39205" lon="5.43034">
        <ele>568</ele>
        <time>2013-04-25T13:21:43Z</time>
      </trkpt>
      <trkpt lat="43.39231" lon="5.4298">
        <ele>565</ele>
        <time>2013-04-25T13:21:56Z</time>
      </trkpt>
      <trkpt lat="43.39264" lon="5.42935">
        <ele>559</ele>
        <time>2013-04-25T13:22:14Z</time>
      </trkpt>
      <trkpt lat="43.39308" lon="5.429">
        <ele>554</ele>
        <time>2013-04-25T13:22:26Z</time>
      </trkpt>
      <trkpt lat="43.3935" lon="5.42867">
        <ele>550</ele>
        <time>2013-04-25T13:22:37Z</time>
      </trkpt>
      <trkpt lat="43.39374" lon="5.42815">
        <ele>545</ele>
        <time>2013-04-25T13:22:50Z</time>
      </trkpt>
      <trkpt lat="43.39408" lon="5.4277">
        <ele>540</ele>
        <time>2013-04-25T13:23:01Z</time>
      </trkpt>
      <trkpt lat="43.39451" lon="5.42734">
        <ele>535</ele>
        <time>2013-04-25T13:23:10Z</time>
      </trkpt>
      <trkpt lat="43.39496" lon="5.42727">
        <ele>532</ele>
        <time>2013-04-25T13:23:19Z</time>
      </trkpt>
      <trkpt lat="43.39542" lon="5.4273">
        <ele>529</ele>
        <time>2013-04-25T13:23:32Z</time>
      </trkpt>
      <trkpt lat="43.39586" lon="5.42753">
        <ele>525</ele>
        <time>2013-04-25T13:23:48Z</time>
      </trkpt>
      <trkpt lat="43.39628" lon="5.42777">
        <ele>523</ele>
        <time>2013-04-25T13:24:06Z</time>
      </trkpt>
      <trkpt lat="43.39675" lon="5.42777">
        <ele>521</ele>
        <time>2013-04-25T13:24:22Z</time>
      </trkpt>
      <trkpt lat="43.39722" lon="5.42771">
        <ele>520</ele>
        <time>2013-04-25T13:24:41Z</time>
      </trkpt>
      <trkpt lat="43.39766" lon="5.42756">
        <ele>507</ele>
        <time>2013-04-25T13:25:49Z</time>
      </trkpt>
      <trkpt lat="43.39807" lon="5.42729">
        <ele>496</ele>
        <time>2013-04-25T13:26:15Z</time>
      </trkpt>
      <trkpt lat="43.39851" lon="5.42713">
        <ele>490</ele>
        <time>2013-04-25T13:26:59Z</time>
      </trkpt>
      <trkpt lat="43.39896" lon="5.42699">
        <ele>484</ele>
        <time>2013-04-25T13:27:20Z</time>
      </trkpt>
      <trkpt lat="43.39941" lon="5.42684">
        <ele>477</ele>
        <time>2013-04-25T13:27:58Z</time>
      </trkpt>
      <trkpt lat="43.39986" lon="5.42665">
        <ele>471</ele>
        <time>2013-04-25T13:28:15Z</time>
      </trkpt>
      <trkpt lat="43.40026" lon="5.42636">
        <ele>466</ele>
        <time>2013-04-25T13:28:29Z</time>
      </trkpt>
      <trkpt lat="43.40069" lon="5.42614">
        <ele>436</ele>
        <time>2013-04-25T13:29:31Z</time>
      </trkpt>
      <trkpt lat="43.40098" lon="5.42565">
        <ele>427</ele>
        <time>2013-04-25T13:29:56Z</time>
      </trkpt>
      <trkpt lat="43.4013" lon="5.4252">
        <ele>423</ele>
        <time>2013-04-25T13:30:15Z</time>
      </trkpt>
      <trkpt lat="43.40158" lon="5.42469">
        <ele>417</ele>
        <time>2013-04-25T13:30:37Z</time>
      </trkpt>
      <trkpt lat="43.40142" lon="5.42407">
        <ele>412</ele>
        <time>2013-04-25T13:30:55Z</time>
      </trkpt>
      <trkpt lat="43.40177" lon="5.4236">
        <ele>405</ele>
        <time>2013-04-25T13:31:11Z</time>
      </trkpt>
      <trkpt lat="43.40222" lon="5.42358">
        <ele>402</ele>
        <time>2013-04-25T13:31:23Z</time>
      </trkpt>
      <trkpt lat="43.40248" lon="5.42416">
        <ele>400</ele>
        <time>2013-04-25T13:31:33Z</time>
      </trkpt>
      <trkpt lat="43.40263" lon="5.42481">
        <ele>397</ele>
        <time>2013-04-25T13:31:40Z</time>
      </trkpt>
      <trkpt lat="43.40255" lon="5.42543">
        <ele>394</ele>
        <time>2013-04-25T13:31:47Z</time>
      </trkpt>
      <trkpt lat="43.40295" lon="5.42575">
        <ele>392</ele>
        <time>2013-04-25T13:31:57Z</time>
      </trkpt>
      <trkpt lat="43.40336" lon="5.4255">
        <ele>390</ele>
        <time>2013-04-25T13:32:04Z</time>
      </trkpt>
      <trkpt lat="43.40377" lon="5.42509">
        <ele>388</ele>
        <time>2013-04-25T13:32:11Z</time>
      </trkpt>
      <trkpt lat="43.40422" lon="5.42475">
        <ele>385</ele>
        <time>2013-04-25T13:32:18Z</time>
      </trkpt>
      <trkpt lat="43.40458" lon="5.42513">
        <ele>381</ele>
        <time>2013-04-25T13:32:28Z</time>
      </trkpt>
      <trkpt lat="43.40499" lon="5.42542">
        <ele>377</ele>
        <time>2013-04-25T13:32:35Z</time>
      </trkpt>
      <trkpt lat="43.40452" lon="5.42568">
        <ele>372</ele>
        <time>2013-04-25T13:32:52Z</time>
      </trkpt>
      <trkpt lat="43.40412" lon="5.426">
        <ele>368</ele>
        <time>2013-04-25T13:32:58Z</time>
      </trkpt>
      <trkpt lat="43.40461" lon="5.42604">
        <ele>364</ele>
        <time>2013-04-25T13:33:30Z</time>
      </trkpt>
      <trkpt lat="43.4049" lon="5.42655">
        <ele>359</ele>
        <time>2013-04-25T13:33:37Z</time>
      </trkpt>
      <trkpt lat="43.40533" lon="5.42694">
        <ele>355</ele>
        <time>2013-04-25T13:33:45Z</time>
      </trkpt>
      <trkpt lat="43.40561" lon="5.4275">
        <ele>353</ele>
        <time>2013-04-25T13:33:53Z</time>
      </trkpt>
      <trkpt lat="43.4058" lon="5.42809">
        <ele>349</ele>
        <time>2013-04-25T13:34:02Z</time>
      </trkpt>
      <trkpt lat="43.40627" lon="5.42833">
        <ele>345</ele>
        <time>2013-04-25T13:34:11Z</time>
      </trkpt>
      <trkpt lat="43.40673" lon="5.42802">
        <ele>342</ele>
        <time>2013-04-25T13:34:19Z</time>
      </trkpt>
      <trkpt lat="43.40712" lon="5.42773">
        <ele>338</ele>
        <time>2013-04-25T13:34:25Z</time>
      </trkpt>
      <trkpt lat="43.40762" lon="5.42751">
        <ele>333</ele>
        <time>2013-04-25T13:34:32Z</time>
      </trkpt>
      <trkpt lat="43.4081" lon="5.42739">
        <ele>331</ele>
        <time>2013-04-25T13:34:38Z</time>
      </trkpt>
      <trkpt lat="43.40857" lon="5.42756">
        <ele>327</ele>
        <time>2013-04-25T13:34:44Z</time>
      </trkpt>
      <trkpt lat="43.40908" lon="5.42749">
        <ele>324</ele>
        <time>2013-04-25T13:34:50Z</time>
      </trkpt>
      <trkpt lat="43.40956" lon="5.42742">
        <ele>322</ele>
        <time>2013-04-25T13:34:56Z</time>
      </trkpt>
      <trkpt lat="43.41005" lon="5.42733">
        <ele>320</ele>
        <time>2013-04-25T13:35:02Z</time>
      </trkpt>
      <trkpt lat="43.4105" lon="5.42714">
        <ele>300</ele>
        <time>2013-04-25T13:37:36Z</time>
      </trkpt>
      <trkpt lat="43.41088" lon="5.4268">
        <ele>297</ele>
        <time>2013-04-25T13:37:45Z</time>
      </trkpt>
      <trkpt lat="43.41106" lon="5.42737">
        <ele>298</ele>
        <time>2013-04-25T13:38:31Z</time>
      </trkpt>
      <trkpt lat="43.41104" lon="5.42799">
        <ele>302</ele>
        <time>2013-04-25T13:38:50Z</time>
      </trkpt>
      <trkpt lat="43.41088" lon="5.42859">
        <ele>304</ele>
        <time>2013-04-25T13:39:12Z</time>
      </trkpt>
      <trkpt lat="43.41064" lon="5.42913">
        <ele>307</ele>
        <time>2013-04-25T13:39:38Z</time>
      </trkpt>
      <trkpt lat="43.41034" lon="5.4296">
        <ele>308</ele>
        <time>2013-04-25T13:40:08Z</time>
      </trkpt>
      <trkpt lat="43.40995" lon="5.42996">
        <ele>313</ele>
        <time>2013-04-25T13:40:33Z</time>
      </trkpt>
      <trkpt lat="43.40973" lon="5.4305">
        <ele>316</ele>
        <time>2013-04-25T13:40:53Z</time>
      </trkpt>
      <trkpt lat="43.40968" lon="5.43113">
        <ele>319</ele>
        <time>2013-04-25T13:41:15Z</time>
      </trkpt>
      <trkpt lat="43.40923" lon="5.43097">
        <ele>320</ele>
        <time>2013-04-25T13:41:33Z</time>
      </trkpt>
      <trkpt lat="43.40877" lon="5.431">
        <ele>323</ele>
        <time>2013-04-25T13:41:54Z</time>
      </trkpt>
      <trkpt lat="43.4086" lon="5.4316">
        <ele>327</ele>
        <time>2013-04-25T13:42:21Z</time>
      </trkpt>
      <trkpt lat="43.40868" lon="5.43222">
        <ele>332</ele>
        <time>2013-04-25T13:42:42Z</time>
      </trkpt>
      <trkpt lat="43.40833" lon="5.43264">
        <ele>336</ele>
        <time>2013-04-25T13:43:06Z</time>
      </trkpt>
      <trkpt lat="43.40791" lon="5.43289">
        <ele>340</ele>
        <time>2013-04-25T13:43:30Z</time>
      </trkpt>
      <trkpt lat="43.40749" lon="5.43311">
        <ele>345</ele>
        <time>2013-04-25T13:43:54Z</time>
      </trkpt>
      <trkpt lat="43.40752" lon="5.43375">
        <ele>348</ele>
        <time>2013-04-25T13:44:17Z</time>
      </trkpt>
      <trkpt lat="43.40765" lon="5.43437">
        <ele>353</ele>
        <time>2013-04-25T13:44:38Z</time>
      </trkpt>
      <trkpt lat="43.40801" lon="5.43476">
        <ele>357</ele>
        <time>2013-04-25T13:45:00Z</time>
      </trkpt>
      <trkpt lat="43.40846" lon="5.43486">
        <ele>360</ele>
        <time>2013-04-25T13:45:17Z</time>
      </trkpt>
      <trkpt lat="43.4087" lon="5.43541">
        <ele>364</ele>
        <time>2013-04-25T13:45:35Z</time>
      </trkpt>
      <trkpt lat="43.40842" lon="5.43592">
        <ele>369</ele>
        <time>2013-04-25T13:46:01Z</time>
      </trkpt>
      <trkpt lat="43.40841" lon="5.43655">
        <ele>373</ele>
        <time>2013-04-25T13:46:25Z</time>
      </trkpt>
      <trkpt lat="43.40851" lon="5.43717">
        <ele>377</ele>
        <time>2013-04-25T13:46:47Z</time>
      </trkpt>
      <trkpt lat="43.40876" lon="5.43769">
        <ele>383</ele>
        <time>2013-04-25T13:47:11Z</time>
      </trkpt>
      <trkpt lat="43.40883" lon="5.43832">
        <ele>388</ele>
        <time>2013-04-25T13:47:42Z</time>
      </trkpt>
      <trkpt lat="43.40843" lon="5.43864">
        <ele>392</ele>
        <time>2013-04-25T13:48:05Z</time>
      </trkpt>
      <trkpt lat="43.40864" lon="5.43922">
        <ele>396</ele>
        <time>2013-04-25T13:48:30Z</time>
      </trkpt>
      <trkpt lat="43.40882" lon="5.43981">
        <ele>400</ele>
        <time>2013-04-25T13:48:46Z</time>
      </trkpt>
      <trkpt lat="43.40857" lon="5.44035">
        <ele>402</ele>
        <time>2013-04-25T13:49:05Z</time>
      </trkpt>
      <trkpt lat="43.40871" lon="5.44096">
        <ele>405</ele>
        <time>2013-04-25T13:49:25Z</time>
      </trkpt>
      <trkpt lat="43.4086" lon="5.44157">
        <ele>407</ele>
        <time>2013-04-25T13:49:43Z</time>
      </trkpt>
      <trkpt lat="43.40871" lon="5.4422">
        <ele>411</ele>
        <time>2013-04-25T13:50:07Z</time>
      </trkpt>
      <trkpt lat="43.40881" lon="5.44282">
        <ele>414</ele>
        <time>2013-04-25T13:50:28Z</time>
      </trkpt>
      <trkpt lat="43.40889" lon="5.44343">
        <ele>418</ele>
        <time>2013-04-25T13:50:45Z</time>
      </trkpt>
      <trkpt lat="43.40907" lon="5.44401">
        <ele>422</ele>
        <time>2013-04-25T13:51:08Z</time>
      </trkpt>
      <trkpt lat="43.40897" lon="5.44464">
        <ele>427</ele>
        <time>2013-04-25T13:51:29Z</time>
      </trkpt>
      <trkpt lat="43.40884" lon="5.44523">
        <ele>432</ele>
        <time>2013-04-25T13:51:54Z</time>
      </trkpt>
      <trkpt lat="43.40874" lon="5.44585">
        <ele>436</ele>
        <time>2013-04-25T13:52:22Z</time>
      </trkpt>
      <trkpt lat="43.40854" lon="5.44643">
        <ele>441</ele>
        <time>2013-04-25T13:52:43Z</time>
      </trkpt>
      <trkpt lat="43.40818" lon="5.44681">
        <ele>444</ele>
        <time>2013-04-25T13:53:06Z</time>
      </trkpt>
      <trkpt lat="43.40821" lon="5.44743">
        <ele>448</ele>
        <time>2013-04-25T13:53:29Z</time>
      </trkpt>
      <trkpt lat="43.40821" lon="5.44807">
        <ele>452</ele>
        <time>2013-04-25T13:53:54Z</time>
      </trkpt>
      <trkpt lat="43.40809" lon="5.44868">
        <ele>456</ele>
        <time>2013-04-25T13:54:21Z</time>
      </trkpt>
      <trkpt lat="43.40797" lon="5.44928">
        <ele>461</ele>
        <time>2013-04-25T13:54:51Z</time>
      </trkpt>
      <trkpt lat="43.40784" lon="5.44989">
        <ele>465</ele>
        <time>2013-04-25T13:55:25Z</time>
      </trkpt>
      <trkpt lat="43.40755" lon="5.45038">
        <ele>470</ele>
        <time>2013-04-25T13:55:53Z</time>
      </trkpt>
      <trkpt lat="43.40721" lon="5.4508">
        <ele>476</ele>
        <time>2013-04-25T13:56:17Z</time>
      </trkpt>
      <trkpt lat="43.40679" lon="5.45109">
        <ele>482</ele>
        <time>2013-04-25T13:56:36Z</time>
      </trkpt>
      <trkpt lat="43.40635" lon="5.45127">
        <ele>487</ele>
        <time>2013-04-25T13:56:58Z</time>
      </trkpt>
      <trkpt lat="43.4063" lon="5.45188">
        <ele>490</ele>
        <time>2013-04-25T13:57:22Z</time>
      </trkpt>
      <trkpt lat="43.40613" lon="5.45248">
        <ele>494</ele>
        <time>2013-04-25T13:57:45Z</time>
      </trkpt>
      <trkpt lat="43.40604" lon="5.45309">
        <ele>496</ele>
        <time>2013-04-25T13:58:09Z</time>
      </trkpt>
      <trkpt lat="43.40638" lon="5.45353">
        <ele>499</ele>
        <time>2013-04-25T13:58:32Z</time>
      </trkpt>
      <trkpt lat="43.40656" lon="5.45411">
        <ele>502</ele>
        <time>2013-04-25T13:58:57Z</time>
      </trkpt>
      <trkpt lat="43.40666" lon="5.45471">
        <ele>506</ele>
        <time>2013-04-25T13:59:19Z</time>
      </trkpt>
      <trkpt lat="43.40676" lon="5.45533">
        <ele>511</ele>
        <time>2013-04-25T13:59:39Z</time>
      </trkpt>
      <trkpt lat="43.40653" lon="5.45588">
        <ele>517</ele>
        <time>2013-04-25T13:59:56Z</time>
      </trkpt>
      <trkpt lat="43.40611" lon="5.45609">
        <ele>520</ele>
        <time>2013-04-25T14:00:18Z</time>
      </trkpt>
      <trkpt lat="43.40598" lon="5.45668">
        <ele>523</ele>
        <time>2013-04-25T14:00:45Z</time>
      </trkpt>
      <trkpt lat="43.40593" lon="5.45732">
        <ele>527</ele>
        <time>2013-04-25T14:01:11Z</time>
      </trkpt>
      <trkpt lat="43.4057" lon="5.45786">
        <ele>532</ele>
        <time>2013-04-25T14:01:35Z</time>
      </trkpt>
      <trkpt lat="43.40571" lon="5.45848">
        <ele>536</ele>
        <time>2013-04-25T14:01:54Z</time>
      </trkpt>
      <trkpt lat="43.40533" lon="5.45885">
        <ele>541</ele>
        <time>2013-04-25T14:02:18Z</time>
      </trkpt>
      <trkpt lat="43.40539" lon="5.45947">
        <ele>545</ele>
        <time>2013-04-25T14:02:42Z</time>
      </trkpt>
      <trkpt lat="43.40556" lon="5.4589">
        <ele>548</ele>
        <time>2013-04-25T14:03:11Z</time>
      </trkpt>
      <trkpt lat="43.40592" lon="5.45851">
        <ele>552</ele>
        <time>2013-04-25T14:03:29Z</time>
      </trkpt>
      <trkpt lat="43.40615" lon="5.45798">
        <ele>556</ele>
        <time>2013-04-25T14:03:51Z</time>
      </trkpt>
      <trkpt lat="43.40636" lon="5.45742">
        <ele>560</ele>
        <time>2013-04-25T14:04:16Z</time>
      </trkpt>
      <trkpt lat="43.40661" lon="5.45685">
        <ele>563</ele>
        <time>2013-04-25T14:04:29Z</time>
      </trkpt>
      <trkpt lat="43.40698" lon="5.45649">
        <ele>566</ele>
        <time>2013-04-25T14:04:49Z</time>
      </trkpt>
      <trkpt lat="43.40734" lon="5.45608">
        <ele>570</ele>
        <time>2013-04-25T14:05:10Z</time>
      </trkpt>
      <trkpt lat="43.40769" lon="5.45567">
        <ele>572</ele>
        <time>2013-04-25T14:05:33Z</time>
      </trkpt>
      <trkpt lat="43.40809" lon="5.45599">
        <ele>574</ele>
        <time>2013-04-25T14:05:45Z</time>
      </trkpt>
      <trkpt lat="43.40849" lon="5.45637">
        <ele>577</ele>
        <time>2013-04-25T14:05:57Z</time>
      </trkpt>
      <trkpt lat="43.40855" lon="5.45701">
        <ele>578</ele>
        <time>2013-04-25T14:06:07Z</time>
      </trkpt>
      <trkpt lat="43.40829" lon="5.45754">
        <ele>580</ele>
        <time>2013-04-25T14:06:17Z</time>
      </trkpt>
      <trkpt lat="43.40797" lon="5.45803">
        <ele>582</ele>
        <time>2013-04-25T14:06:33Z</time>
      </trkpt>
      <trkpt lat="43.4078" lon="5.45861">
        <ele>583</ele>
        <time>2013-04-25T14:06:50Z</time>
      </trkpt>
      <trkpt lat="43.40773" lon="5.45923">
        <ele>585</ele>
        <time>2013-04-25T14:07:09Z</time>
      </trkpt>
      <trkpt lat="43.40733" lon="5.45953">
        <ele>586</ele>
        <time>2013-04-25T14:07:34Z</time>
      </trkpt>
      <trkpt lat="43.40701" lon="5.45998">
        <ele>590</ele>
        <time>2013-04-25T14:07:56Z</time>
      </trkpt>
      <trkpt lat="43.4066" lon="5.46026">
        <ele>592</ele>
        <time>2013-04-25T14:08:17Z</time>
      </trkpt>
      <trkpt lat="43.40626" lon="5.4607">
        <ele>596</ele>
        <time>2013-04-25T14:08:36Z</time>
      </trkpt>
      <trkpt lat="43.40609" lon="5.46129">
        <ele>598</ele>
        <time>2013-04-25T14:09:01Z</time>
      </trkpt>
      <trkpt lat="43.40611" lon="5.46193">
        <ele>600</ele>
        <time>2013-04-25T14:09:26Z</time>
      </trkpt>
      <trkpt lat="43.40607" lon="5.46258">
        <ele>601</ele>
        <time>2013-04-25T14:09:46Z</time>
      </trkpt>
      <trkpt lat="43.40611" lon="5.46321">
        <ele>603</ele>
        <time>2013-04-25T14:09:55Z</time>
      </trkpt>
      <trkpt lat="43.40615" lon="5.46384">
        <ele>604</ele>
        <time>2013-04-25T14:10:08Z</time>
      </trkpt>
      <trkpt lat="43.40603" lon="5.46445">
        <ele>607</ele>
        <time>2013-04-25T14:10:29Z</time>
      </trkpt>
      <trkpt lat="43.4058" lon="5.46499">
        <ele>611</ele>
        <time>2013-04-25T14:10:52Z</time>
      </trkpt>
      <trkpt lat="43.40586" lon="5.4656">
        <ele>615</ele>
        <time>2013-04-25T14:11:17Z</time>
      </trkpt>
      <trkpt lat="43.40589" lon="5.46623">
        <ele>619</ele>
        <time>2013-04-25T14:11:39Z</time>
      </trkpt>
      <trkpt lat="43.40561" lon="5.46671">
        <ele>624</ele>
        <time>2013-04-25T14:12:02Z</time>
      </trkpt>
      <trkpt lat="43.40564" lon="5.46737">
        <ele>627</ele>
        <time>2013-04-25T14:12:23Z</time>
      </trkpt>
      <trkpt lat="43.40588" lon="5.46791">
        <ele>628</ele>
        <time>2013-04-25T14:12:37Z</time>
      </trkpt>
      <trkpt lat="43.40628" lon="5.46828">
        <ele>628</ele>
        <time>2013-04-25T14:12:48Z</time>
      </trkpt>
      <trkpt lat="43.40581" lon="5.46835">
        <ele>628</ele>
        <time>2013-04-25T14:12:59Z</time>
      </trkpt>
      <trkpt lat="43.40545" lon="5.46872">
        <ele>628</ele>
        <time>2013-04-25T14:13:13Z</time>
      </trkpt>
      <trkpt lat="43.40529" lon="5.46934">
        <ele>629</ele>
        <time>2013-04-25T14:13:23Z</time>
      </trkpt>
      <trkpt lat="43.40501" lon="5.46982">
        <ele>629</ele>
        <time>2013-04-25T14:13:35Z</time>
      </trkpt>
      <trkpt lat="43.40482" lon="5.47015">
        <ele>631</ele>
        <time>2013-04-25T14:16:10Z</time>
      </trkpt>
      <trkpt lat="43.40506" lon="5.46962">
        <ele>634</ele>
        <time>2013-04-25T14:18:10Z</time>
      </trkpt>
      <trkpt lat="43.40519" lon="5.47026">
        <ele>620</ele>
        <time>2013-04-25T14:18:42Z</time>
      </trkpt>
      <trkpt lat="43.405" lon="5.4709">
        <ele>620</ele>
        <time>2013-04-25T14:18:51Z</time>
      </trkpt>
      <trkpt lat="43.40468" lon="5.47138">
        <ele>618</ele>
        <time>2013-04-25T14:19:01Z</time>
      </trkpt>
      <trkpt lat="43.40429" lon="5.47173">
        <ele>618</ele>
        <time>2013-04-25T14:19:09Z</time>
      </trkpt>
      <trkpt lat="43.40422" lon="5.47235">
        <ele>616</ele>
        <time>2013-04-25T14:19:18Z</time>
      </trkpt>
      <trkpt lat="43.40441" lon="5.47296">
        <ele>615</ele>
        <time>2013-04-25T14:19:28Z</time>
      </trkpt>
      <trkpt lat="43.40457" lon="5.47354">
        <ele>613</ele>
        <time>2013-04-25T14:19:40Z</time>
      </trkpt>
      <trkpt lat="43.40479" lon="5.47416">
        <ele>611</ele>
        <time>2013-04-25T14:19:53Z</time>
      </trkpt>
      <trkpt lat="43.40491" lon="5.47476">
        <ele>610</ele>
        <time>2013-04-25T14:20:04Z</time>
      </trkpt>
      <trkpt lat="43.40506" lon="5.47535">
        <ele>609</ele>
        <time>2013-04-25T14:20:12Z</time>
      </trkpt>
      <trkpt lat="43.40543" lon="5.47572">
        <ele>608</ele>
        <time>2013-04-25T14:20:21Z</time>
      </trkpt>
      <trkpt lat="43.40583" lon="5.47611">
        <ele>606</ele>
        <time>2013-04-25T14:20:31Z</time>
      </trkpt>
      <trkpt lat="43.40614" lon="5.47667">
        <ele>605</ele>
        <time>2013-04-25T14:20:39Z</time>
      </trkpt>
      <trkpt lat="43.40656" lon="5.47713">
        <ele>602</ele>
        <time>2013-04-25T14:20:47Z</time>
      </trkpt>
      <trkpt lat="43.40693" lon="5.47757">
        <ele>600</ele>
        <time>2013-04-25T14:20:53Z</time>
      </trkpt>
      <trkpt lat="43.40725" lon="5.47807">
        <ele>598</ele>
        <time>2013-04-25T14:20:58Z</time>
      </trkpt>
      <trkpt lat="43.40748" lon="5.47875">
        <ele>596</ele>
        <time>2013-04-25T14:21:03Z</time>
      </trkpt>
      <trkpt lat="43.40764" lon="5.47944">
        <ele>592</ele>
        <time>2013-04-25T14:21:09Z</time>
      </trkpt>
      <trkpt lat="43.40783" lon="5.48005">
        <ele>590</ele>
        <time>2013-04-25T14:21:16Z</time>
      </trkpt>
      <trkpt lat="43.40792" lon="5.48073">
        <ele>588</ele>
        <time>2013-04-25T14:21:25Z</time>
      </trkpt>
      <trkpt lat="43.40792" lon="5.48138">
        <ele>587</ele>
        <time>2013-04-25T14:21:34Z</time>
      </trkpt>
      <trkpt lat="43.4079" lon="5.48206">
        <ele>586</ele>
        <time>2013-04-25T14:21:43Z</time>
      </trkpt>
      <trkpt lat="43.40798" lon="5.4827">
        <ele>585</ele>
        <time>2013-04-25T14:21:52Z</time>
      </trkpt>
      <trkpt lat="43.40812" lon="5.48331">
        <ele>585</ele>
        <time>2013-04-25T14:22:04Z</time>
      </trkpt>
      <trkpt lat="43.40842" lon="5.48382">
        <ele>584</ele>
        <time>2013-04-25T14:22:19Z</time>
      </trkpt>
      <trkpt lat="43.40849" lon="5.48448">
        <ele>582</ele>
        <time>2013-04-25T14:22:27Z</time>
      </trkpt>
      <trkpt lat="43.40866" lon="5.48508">
        <ele>579</ele>
        <time>2013-04-25T14:22:33Z</time>
      </trkpt>
      <trkpt lat="43.40909" lon="5.48538">
        <ele>576</ele>
        <time>2013-04-25T14:22:40Z</time>
      </trkpt>
      <trkpt lat="43.4092" lon="5.48601">
        <ele>574</ele>
        <time>2013-04-25T14:22:46Z</time>
      </trkpt>
      <trkpt lat="43.40938" lon="5.48665">
        <ele>570</ele>
        <time>2013-04-25T14:22:53Z</time>
      </trkpt>
      <trkpt lat="43.40949" lon="5.48725">
        <ele>567</ele>
        <time>2013-04-25T14:23:01Z</time>
      </trkpt>
      <trkpt lat="43.4097" lon="5.48785">
        <ele>563</ele>
        <time>2013-04-25T14:23:07Z</time>
      </trkpt>
      <trkpt lat="43.40986" lon="5.48852">
        <ele>560</ele>
        <time>2013-04-25T14:23:14Z</time>
      </trkpt>
      <trkpt lat="43.40998" lon="5.48916">
        <ele>557</ele>
        <time>2013-04-25T14:23:19Z</time>
      </trkpt>
      <trkpt lat="43.41015" lon="5.48981">
        <ele>554</ele>
        <time>2013-04-25T14:23:26Z</time>
      </trkpt>
      <trkpt lat="43.41037" lon="5.49035">
        <ele>550</ele>
        <time>2013-04-25T14:23:36Z</time>
      </trkpt>
      <trkpt lat="43.41037" lon="5.49105">
        <ele>547</ele>
        <time>2013-04-25T14:23:48Z</time>
      </trkpt>
      <trkpt lat="43.41041" lon="5.49169">
        <ele>545</ele>
        <time>2013-04-25T14:24:08Z</time>
      </trkpt>
      <trkpt lat="43.41039" lon="5.49232">
        <ele>545</ele>
        <time>2013-04-25T14:24:31Z</time>
      </trkpt>
      <trkpt lat="43.41029" lon="5.49293">
        <ele>549</ele>
        <time>2013-04-25T14:24:57Z</time>
      </trkpt>
      <trkpt lat="43.4102" lon="5.49354">
        <ele>550</ele>
        <time>2013-04-25T14:25:18Z</time>
      </trkpt>
      <trkpt lat="43.40998" lon="5.49409">
        <ele>553</ele>
        <time>2013-04-25T14:25:41Z</time>
      </trkpt>
      <trkpt lat="43.40966" lon="5.49456">
        <ele>558</ele>
        <time>2013-04-25T14:26:05Z</time>
      </trkpt>
      <trkpt lat="43.40947" lon="5.49513">
        <ele>562</ele>
        <time>2013-04-25T14:26:30Z</time>
      </trkpt>
      <trkpt lat="43.40919" lon="5.49566">
        <ele>563</ele>
        <time>2013-04-25T14:26:50Z</time>
      </trkpt>
      <trkpt lat="43.40913" lon="5.4963">
        <ele>565</ele>
        <time>2013-04-25T14:27:02Z</time>
      </trkpt>
      <trkpt lat="43.40875" lon="5.49673">
        <ele>568</ele>
        <time>2013-04-25T14:27:14Z</time>
      </trkpt>
      <trkpt lat="43.40865" lon="5.4974">
        <ele>570</ele>
        <time>2013-04-25T14:27:24Z</time>
      </trkpt>
      <trkpt lat="43.4084" lon="5.49797">
        <ele>571</ele>
        <time>2013-04-25T14:27:34Z</time>
      </trkpt>
      <trkpt lat="43.40856" lon="5.49857">
        <ele>571</ele>
        <time>2013-04-25T14:27:43Z</time>
      </trkpt>
      <trkpt lat="43.40829" lon="5.49908">
        <ele>571</ele>
        <time>2013-04-25T14:27:53Z</time>
      </trkpt>
      <trkpt lat="43.40819" lon="5.49972">
        <ele>571</ele>
        <time>2013-04-25T14:28:04Z</time>
      </trkpt>
      <trkpt lat="43.40778" lon="5.50005">
        <ele>571</ele>
        <time>2013-04-25T14:28:13Z</time>
      </trkpt>
      <trkpt lat="43.40736" lon="5.50035">
        <ele>573</ele>
        <time>2013-04-25T14:28:23Z</time>
      </trkpt>
      <trkpt lat="43.4071" lon="5.50086">
        <ele>573</ele>
        <time>2013-04-25T14:28:39Z</time>
      </trkpt>
      <trkpt lat="43.40711" lon="5.50148">
        <ele>574</ele>
        <time>2013-04-25T14:28:53Z</time>
      </trkpt>
      <trkpt lat="43.40696" lon="5.50209">
        <ele>576</ele>
        <time>2013-04-25T14:29:07Z</time>
      </trkpt>
      <trkpt lat="43.40684" lon="5.50273">
        <ele>576</ele>
        <time>2013-04-25T14:29:20Z</time>
      </trkpt>
      <trkpt lat="43.40676" lon="5.50334">
        <ele>577</ele>
        <time>2013-04-25T14:29:38Z</time>
      </trkpt>
      <trkpt lat="43.40653" lon="5.50389">
        <ele>580</ele>
        <time>2013-04-25T14:30:09Z</time>
      </trkpt>
      <trkpt lat="43.40662" lon="5.50452">
        <ele>583</ele>
        <time>2013-04-25T14:30:48Z</time>
      </trkpt>
      <trkpt lat="43.40658" lon="5.50514">
        <ele>587</ele>
        <time>2013-04-25T14:31:25Z</time>
      </trkpt>
      <trkpt lat="43.40659" lon="5.50576">
        <ele>589</ele>
        <time>2013-04-25T14:31:45Z</time>
      </trkpt>
      <trkpt lat="43.40649" lon="5.50638">
        <ele>593</ele>
        <time>2013-04-25T14:32:18Z</time>
      </trkpt>
      <trkpt lat="43.40652" lon="5.507">
        <ele>597</ele>
        <time>2013-04-25T14:32:50Z</time>
      </trkpt>
      <trkpt lat="43.40649" lon="5.50763">
        <ele>602</ele>
        <time>2013-04-25T14:33:24Z</time>
      </trkpt>
      <trkpt lat="43.40658" lon="5.50825">
        <ele>608</ele>
        <time>2013-04-25T14:33:52Z</time>
      </trkpt>
      <trkpt lat="43.40702" lon="5.50814">
        <ele>611</ele>
        <time>2013-04-25T14:34:28Z</time>
      </trkpt>
      <trkpt lat="43.40742" lon="5.50782">
        <ele>618</ele>
        <time>2013-04-25T14:34:58Z</time>
      </trkpt>
      <trkpt lat="43.40788" lon="5.50779">
        <ele>624</ele>
        <time>2013-04-25T14:35:35Z</time>
      </trkpt>
      <trkpt lat="43.40819" lon="5.50823">
        <ele>629</ele>
        <time>2013-04-25T14:36:03Z</time>
      </trkpt>
      <trkpt lat="43.40828" lon="5.50885">
        <ele>634</ele>
        <time>2013-04-25T14:36:29Z</time>
      </trkpt>
      <trkpt lat="43.40831" lon="5.50947">
        <ele>639</ele>
        <time>2013-04-25T14:36:55Z</time>
      </trkpt>
      <trkpt lat="43.40871" lon="5.50979">
        <ele>645</ele>
        <time>2013-04-25T14:37:23Z</time>
      </trkpt>
      <trkpt lat="43.40889" lon="5.51038">
        <ele>649</ele>
        <time>2013-04-25T14:37:51Z</time>
      </trkpt>
      <trkpt lat="43.40903" lon="5.51099">
        <ele>653</ele>
        <time>2013-04-25T14:38:22Z</time>
      </trkpt>
      <trkpt lat="43.40909" lon="5.51161">
        <ele>658</ele>
        <time>2013-04-25T14:38:54Z</time>
      </trkpt>
      <trkpt lat="43.40879" lon="5.51115">
        <ele>662</ele>
        <time>2013-04-25T14:39:37Z</time>
      </trkpt>
      <trkpt lat="43.40851" lon="5.51065">
        <ele>666</ele>
        <time>2013-04-25T14:40:02Z</time>
      </trkpt>
      <trkpt lat="43.40814" lon="5.51029">
        <ele>672</ele>
        <time>2013-04-25T14:40:26Z</time>
      </trkpt>
      <trkpt lat="43.40773" lon="5.51002">
        <ele>676</ele>
        <time>2013-04-25T14:40:55Z</time>
      </trkpt>
      <trkpt lat="43.40735" lon="5.50969">
        <ele>682</ele>
        <time>2013-04-25T14:41:30Z</time>
      </trkpt>
      <trkpt lat="43.40701" lon="5.51012">
        <ele>688</ele>
        <time>2013-04-25T14:42:00Z</time>
      </trkpt>
      <trkpt lat="43.40668" lon="5.51054">
        <ele>695</ele>
        <time>2013-04-25T14:42:31Z</time>
      </trkpt>
      <trkpt lat="43.4065" lon="5.51113">
        <ele>701</ele>
        <time>2013-04-25T14:43:04Z</time>
      </trkpt>
      <trkpt lat="43.40619" lon="5.51158">
        <ele>707</ele>
        <time>2013-04-25T14:43:37Z</time>
      </trkpt>
      <trkpt lat="43.40663" lon="5.51142">
        <ele>740</ele>
        <time>2013-04-25T14:44:46Z</time>
      </trkpt>
      <trkpt lat="43.40696" lon="5.51094">
        <ele>743</ele>
        <time>2013-04-25T14:45:02Z</time>
      </trkpt>
      <trkpt lat="43.4074" lon="5.51109">
        <ele>746</ele>
        <time>2013-04-25T14:45:28Z</time>
      </trkpt>
      <trkpt lat="43.40773" lon="5.51152">
        <ele>747</ele>
        <time>2013-04-25T14:45:55Z</time>
      </trkpt>
      <trkpt lat="43.40772" lon="5.51215">
        <ele>748</ele>
        <time>2013-04-25T14:46:15Z</time>
      </trkpt>
      <trkpt lat="43.40738" lon="5.51258">
        <ele>749</ele>
        <time>2013-04-25T14:46:41Z</time>
      </trkpt>
      <trkpt lat="43.40701" lon="5.51293">
        <ele>751</ele>
        <time>2013-04-25T14:47:07Z</time>
      </trkpt>
      <trkpt lat="43.4072" lon="5.51237">
        <ele>755</ele>
        <time>2013-04-25T14:47:37Z</time>
      </trkpt>
      <trkpt lat="43.40675" lon="5.51236">
        <ele>762</ele>
        <time>2013-04-25T14:48:24Z</time>
      </trkpt>
      <trkpt lat="43.40637" lon="5.51282">
        <ele>765</ele>
        <time>2013-04-25T14:48:41Z</time>
      </trkpt>
      <trkpt lat="43.40589" lon="5.51292">
        <ele>766</ele>
        <time>2013-04-25T14:48:49Z</time>
      </trkpt>
      <trkpt lat="43.4055" lon="5.51252">
        <ele>767</ele>
        <time>2013-04-25T14:48:57Z</time>
      </trkpt>
      <trkpt lat="43.40531" lon="5.51193">
        <ele>767</ele>
        <time>2013-04-25T14:49:10Z</time>
      </trkpt>
      <trkpt lat="43.40504" lon="5.51139">
        <ele>766</ele>
        <time>2013-04-25T14:49:33Z</time>
      </trkpt>
      <trkpt lat="43.40498" lon="5.51077">
        <ele>752</ele>
        <time>2013-04-25T14:53:40Z</time>
      </trkpt>
      <trkpt lat="43.40495" lon="5.51015">
        <ele>750</ele>
        <time>2013-04-25T14:54:46Z</time>
      </trkpt>
      <trkpt lat="43.40487" lon="5.50954">
        <ele>753</ele>
        <time>2013-04-25T14:55:42Z</time>
      </trkpt>
      <trkpt lat="43.40482" lon="5.50892">
        <ele>749</ele>
        <time>2013-04-25T14:56:47Z</time>
      </trkpt>
      <trkpt lat="43.40476" lon="5.50828">
        <ele>732</ele>
        <time>2013-04-25T14:57:45Z</time>
      </trkpt>
      <trkpt lat="43.4048" lon="5.50765">
        <ele>728</ele>
        <time>2013-04-25T14:58:22Z</time>
      </trkpt>
      <trkpt lat="43.40494" lon="5.50704">
        <ele>725</ele>
        <time>2013-04-25T14:58:40Z</time>
      </trkpt>
      <trkpt lat="43.40488" lon="5.50642">
        <ele>723</ele>
        <time>2013-04-25T14:58:58Z</time>
      </trkpt>
      <trkpt lat="43.40476" lon="5.50582">
        <ele>725</ele>
        <time>2013-04-25T14:59:48Z</time>
      </trkpt>
      <trkpt lat="43.40462" lon="5.50521">
        <ele>729</ele>
        <time>2013-04-25T15:00:54Z</time>
      </trkpt>
      <trkpt lat="43.40468" lon="5.50459">
        <ele>728</ele>
        <time>2013-04-25T15:01:22Z</time>
      </trkpt>
      <trkpt lat="43.40463" lon="5.50397">
        <ele>738</ele>
        <time>2013-04-25T15:02:25Z</time>
      </trkpt>
      <trkpt lat="43.4046" lon="5.50335">
        <ele>721</ele>
        <time>2013-04-25T15:04:13Z</time>
      </trkpt>
      <trkpt lat="43.40463" lon="5.50273">
        <ele>728</ele>
        <time>2013-04-25T15:05:07Z</time>
      </trkpt>
      <trkpt lat="43.40474" lon="5.50212">
        <ele>729</ele>
        <time>2013-04-25T15:05:41Z</time>
      </trkpt>
      <trkpt lat="43.4048" lon="5.5015">
        <ele>726</ele>
        <time>2013-04-25T15:06:01Z</time>
      </trkpt>
      <trkpt lat="43.40503" lon="5.50095">
        <ele>726</ele>
        <time>2013-04-25T15:06:14Z</time>
      </trkpt>
      <trkpt lat="43.40508" lon="5.50029">
        <ele>725</ele>
        <time>2013-04-25T15:06:26Z</time>
      </trkpt>
      <trkpt lat="43.40509" lon="5.49967">
        <ele>726</ele>
        <time>2013-04-25T15:07:04Z</time>
      </trkpt>
      <trkpt lat="43.40516" lon="5.49903">
        <ele>726</ele>
        <time>2013-04-25T15:08:00Z</time>
      </trkpt>
      <trkpt lat="43.40543" lon="5.4985">
        <ele>727</ele>
        <time>2013-04-25T15:08:22Z</time>
      </trkpt>
      <trkpt lat="43.40572" lon="5.49802">
        <ele>727</ele>
        <time>2013-04-25T15:08:55Z</time>
      </trkpt>
      <trkpt lat="43.40584" lon="5.49741">
        <ele>723</ele>
        <time>2013-04-25T15:09:17Z</time>
      </trkpt>
      <trkpt lat="43.40587" lon="5.49679">
        <ele>719</ele>
        <time>2013-04-25T15:09:39Z</time>
      </trkpt>
      <trkpt lat="43.40603" lon="5.49618">
        <ele>717</ele>
        <time>2013-04-25T15:10:18Z</time>
      </trkpt>
      <trkpt lat="43.40634" lon="5.49571">
        <ele>715</ele>
        <time>2013-04-25T15:10:34Z</time>
      </trkpt>
      <trkpt lat="43.40656" lon="5.49512">
        <ele>712</ele>
        <time>2013-04-25T15:10:43Z</time>
      </trkpt>
      <trkpt lat="43.4067" lon="5.49453">
        <ele>710</ele>
        <time>2013-04-25T15:10:53Z</time>
      </trkpt>
      <trkpt lat="43.4068" lon="5.49392">
        <ele>704</ele>
        <time>2013-04-25T15:11:05Z</time>
      </trkpt>
      <trkpt lat="43.40686" lon="5.49329">
        <ele>699</ele>
        <time>2013-04-25T15:11:17Z</time>
      </trkpt>
      <trkpt lat="43.40687" lon="5.49266">
        <ele>693</ele>
        <time>2013-04-25T15:11:29Z</time>
      </trkpt>
      <trkpt lat="43.40642" lon="5.49243">
        <ele>688</ele>
        <time>2013-04-25T15:11:44Z</time>
      </trkpt>
      <trkpt lat="43.40598" lon="5.49229">
        <ele>683</ele>
        <time>2013-04-25T15:11:56Z</time>
      </trkpt>
      <trkpt lat="43.40556" lon="5.49203">
        <ele>675</ele>
        <time>2013-04-25T15:12:19Z</time>
      </trkpt>
      <trkpt lat="43.40509" lon="5.49195">
        <ele>670</ele>
        <time>2013-04-25T15:12:34Z</time>
      </trkpt>
      <trkpt lat="43.40465" lon="5.49171">
        <ele>661</ele>
        <time>2013-04-25T15:12:48Z</time>
      </trkpt>
      <trkpt lat="43.40455" lon="5.49106">
        <ele>653</ele>
        <time>2013-04-25T15:13:00Z</time>
      </trkpt>
      <trkpt lat="43.40427" lon="5.49055">
        <ele>647</ele>
        <time>2013-04-25T15:13:10Z</time>
      </trkpt>
      <trkpt lat="43.40382" lon="5.49057">
        <ele>641</ele>
        <time>2013-04-25T15:13:31Z</time>
      </trkpt>
      <trkpt lat="43.40375" lon="5.48989">
        <ele>629</ele>
        <time>2013-04-25T15:13:54Z</time>
      </trkpt>
      <trkpt lat="43.40347" lon="5.48935">
        <ele>620</ele>
        <time>2013-04-25T15:14:04Z</time>
      </trkpt>
      <trkpt lat="43.40302" lon="5.48909">
        <ele>614</ele>
        <time>2013-04-25T15:14:14Z</time>
      </trkpt>
      <trkpt lat="43.40347" lon="5.48889">
        <ele>606</ele>
        <time>2013-04-25T15:14:59Z</time>
      </trkpt>
      <trkpt lat="43.4039" lon="5.48855">
        <ele>601</ele>
        <time>2013-04-25T15:15:11Z</time>
      </trkpt>
      <trkpt lat="43.40437" lon="5.48846">
        <ele>597</ele>
        <time>2013-04-25T15:15:23Z</time>
      </trkpt>
      <trkpt lat="43.40459" lon="5.48791">
        <ele>596</ele>
        <time>2013-04-25T15:15:40Z</time>
      </trkpt>
      <trkpt lat="43.40482" lon="5.48734">
        <ele>596</ele>
        <time>2013-04-25T15:15:59Z</time>
      </trkpt>
      <trkpt lat="43.40517" lon="5.48689">
        <ele>596</ele>
        <time>2013-04-25T15:16:17Z</time>
      </trkpt>
      <trkpt lat="43.4054" lon="5.48751">
        <ele>596</ele>
        <time>2013-04-25T15:16:25Z</time>
      </trkpt>
      <trkpt lat="43.4057" lon="5.48805">
        <ele>594</ele>
        <time>2013-04-25T15:16:32Z</time>
      </trkpt>
      <trkpt lat="43.40604" lon="5.48763">
        <ele>593</ele>
        <time>2013-04-25T15:16:39Z</time>
      </trkpt>
      <trkpt lat="43.40646" lon="5.48728">
        <ele>590</ele>
        <time>2013-04-25T15:16:47Z</time>
      </trkpt>
      <trkpt lat="43.40691" lon="5.48708">
        <ele>587</ele>
        <time>2013-04-25T15:17:04Z</time>
      </trkpt>
      <trkpt lat="43.40708" lon="5.48648">
        <ele>585</ele>
        <time>2013-04-25T15:17:12Z</time>
      </trkpt>
      <trkpt lat="43.40727" lon="5.48585">
        <ele>584</ele>
        <time>2013-04-25T15:17:19Z</time>
      </trkpt>
      <trkpt lat="43.40745" lon="5.48524">
        <ele>583</ele>
        <time>2013-04-25T15:17:26Z</time>
      </trkpt>
      <trkpt lat="43.40763" lon="5.48464">
        <ele>582</ele>
        <time>2013-04-25T15:17:34Z</time>
      </trkpt>
      <trkpt lat="43.40795" lon="5.48418">
        <ele>584</ele>
        <time>2013-04-25T15:17:45Z</time>
      </trkpt>
      <trkpt lat="43.4083" lon="5.48357">
        <ele>585</ele>
        <time>2013-04-25T15:18:06Z</time>
      </trkpt>
      <trkpt lat="43.40811" lon="5.48296">
        <ele>586</ele>
        <time>2013-04-25T15:18:23Z</time>
      </trkpt>
      <trkpt lat="43.40799" lon="5.48235">
        <ele>587</ele>
        <time>2013-04-25T15:18:33Z</time>
      </trkpt>
      <trkpt lat="43.40796" lon="5.48172">
        <ele>587</ele>
        <time>2013-04-25T15:18:41Z</time>
      </trkpt>
      <trkpt lat="43.40798" lon="5.48108">
        <ele>587</ele>
        <time>2013-04-25T15:18:49Z</time>
      </trkpt>
      <trkpt lat="43.40795" lon="5.48039">
        <ele>588</ele>
        <time>2013-04-25T15:18:58Z</time>
      </trkpt>
      <trkpt lat="43.40785" lon="5.47979">
        <ele>588</ele>
        <time>2013-04-25T15:19:06Z</time>
      </trkpt>
      <trkpt lat="43.40767" lon="5.47919">
        <ele>588</ele>
        <time>2013-04-25T15:19:14Z</time>
      </trkpt>
      <trkpt lat="43.4075" lon="5.47861">
        <ele>588</ele>
        <time>2013-04-25T15:19:22Z</time>
      </trkpt>
      <trkpt lat="43.40747" lon="5.47798">
        <ele>587</ele>
        <time>2013-04-25T15:19:37Z</time>
      </trkpt>
      <trkpt lat="43.40785" lon="5.47762">
        <ele>584</ele>
        <time>2013-04-25T15:19:48Z</time>
      </trkpt>
      <trkpt lat="43.40824" lon="5.47731">
        <ele>582</ele>
        <time>2013-04-25T15:19:58Z</time>
      </trkpt>
      <trkpt lat="43.40856" lon="5.47685">
        <ele>580</ele>
        <time>2013-04-25T15:20:11Z</time>
      </trkpt>
      <trkpt lat="43.40903" lon="5.47696">
        <ele>577</ele>
        <time>2013-04-25T15:20:28Z</time>
      </trkpt>
      <trkpt lat="43.40918" lon="5.47755">
        <ele>575</ele>
        <time>2013-04-25T15:20:46Z</time>
      </trkpt>
      <trkpt lat="43.4092" lon="5.47817">
        <ele>574</ele>
        <time>2013-04-25T15:21:01Z</time>
      </trkpt>
      <trkpt lat="43.40909" lon="5.47881">
        <ele>573</ele>
        <time>2013-04-25T15:21:13Z</time>
      </trkpt>
      <trkpt lat="43.40926" lon="5.47939">
        <ele>570</ele>
        <time>2013-04-25T15:21:22Z</time>
      </trkpt>
      <trkpt lat="43.40917" lon="5.48005">
        <ele>569</ele>
        <time>2013-04-25T15:21:32Z</time>
      </trkpt>
      <trkpt lat="43.40917" lon="5.4807">
        <ele>567</ele>
        <time>2013-04-25T15:21:44Z</time>
      </trkpt>
      <trkpt lat="43.40919" lon="5.48132">
        <ele>563</ele>
        <time>2013-04-25T15:21:55Z</time>
      </trkpt>
      <trkpt lat="43.40921" lon="5.48202">
        <ele>561</ele>
        <time>2013-04-25T15:22:03Z</time>
      </trkpt>
      <trkpt lat="43.40916" lon="5.48272">
        <ele>558</ele>
        <time>2013-04-25T15:22:11Z</time>
      </trkpt>
      <trkpt lat="43.40913" lon="5.48334">
        <ele>554</ele>
        <time>2013-04-25T15:22:19Z</time>
      </trkpt>
      <trkpt lat="43.40907" lon="5.48396">
        <ele>552</ele>
        <time>2013-04-25T15:22:26Z</time>
      </trkpt>
      <trkpt lat="43.40913" lon="5.48457">
        <ele>548</ele>
        <time>2013-04-25T15:22:49Z</time>
      </trkpt>
      <trkpt lat="43.40922" lon="5.48519">
        <ele>547</ele>
        <time>2013-04-25T15:23:39Z</time>
      </trkpt>
      <trkpt lat="43.4093" lon="5.4858">
        <ele>547</ele>
        <time>2013-04-25T15:24:22Z</time>
      </trkpt>
      <trkpt lat="43.40948" lon="5.48642">
        <ele>547</ele>
        <time>2013-04-25T15:24:33Z</time>
      </trkpt>
      <trkpt lat="43.40961" lon="5.48705">
        <ele>545</ele>
        <time>2013-04-25T15:24:44Z</time>
      </trkpt>
      <trkpt lat="43.40977" lon="5.4877">
        <ele>543</ele>
        <time>2013-04-25T15:24:58Z</time>
      </trkpt>
      <trkpt lat="43.40981" lon="5.48841">
        <ele>541</ele>
        <time>2013-04-25T15:25:05Z</time>
      </trkpt>
      <trkpt lat="43.40995" lon="5.48904">
        <ele>540</ele>
        <time>2013-04-25T15:25:14Z</time>
      </trkpt>
      <trkpt lat="43.4101" lon="5.48965">
        <ele>538</ele>
        <time>2013-04-25T15:25:21Z</time>
      </trkpt>
      <trkpt lat="43.41031" lon="5.49023">
        <ele>537</ele>
        <time>2013-04-25T15:25:28Z</time>
      </trkpt>
      <trkpt lat="43.41062" lon="5.49072">
        <ele>535</ele>
        <time>2013-04-25T15:25:39Z</time>
      </trkpt>
      <trkpt lat="43.41095" lon="5.49118">
        <ele>533</ele>
        <time>2013-04-25T15:25:49Z</time>
      </trkpt>
      <trkpt lat="43.41128" lon="5.4916">
        <ele>530</ele>
        <time>2013-04-25T15:26:02Z</time>
      </trkpt>
      <trkpt lat="43.41138" lon="5.49092">
        <ele>527</ele>
        <time>2013-04-25T15:26:12Z</time>
      </trkpt>
      <trkpt lat="43.41155" lon="5.49034">
        <ele>523</ele>
        <time>2013-04-25T15:26:20Z</time>
      </trkpt>
      <trkpt lat="43.41167" lon="5.48969">
        <ele>518</ele>
        <time>2013-04-25T15:26:31Z</time>
      </trkpt>
      <trkpt lat="43.41149" lon="5.48903">
        <ele>514</ele>
        <time>2013-04-25T15:26:40Z</time>
      </trkpt>
      <trkpt lat="43.41126" lon="5.48844">
        <ele>510</ele>
        <time>2013-04-25T15:26:48Z</time>
      </trkpt>
      <trkpt lat="43.41139" lon="5.48779">
        <ele>505</ele>
        <time>2013-04-25T15:26:58Z</time>
      </trkpt>
      <trkpt lat="43.41152" lon="5.48716">
        <ele>500</ele>
        <time>2013-04-25T15:27:07Z</time>
      </trkpt>
      <trkpt lat="43.41156" lon="5.48645">
        <ele>495</ele>
        <time>2013-04-25T15:27:15Z</time>
      </trkpt>
      <trkpt lat="43.41145" lon="5.48584">
        <ele>489</ele>
        <time>2013-04-25T15:27:21Z</time>
      </trkpt>
      <trkpt lat="43.41153" lon="5.48522">
        <ele>483</ele>
        <time>2013-04-25T15:27:27Z</time>
      </trkpt>
      <trkpt lat="43.41161" lon="5.48461">
        <ele>478</ele>
        <time>2013-04-25T15:27:32Z</time>
      </trkpt>
      <trkpt lat="43.41167" lon="5.48397">
        <ele>476</ele>
        <time>2013-04-25T15:27:37Z</time>
      </trkpt>
      <trkpt lat="43.41157" lon="5.48329">
        <ele>474</ele>
        <time>2013-04-25T15:27:43Z</time>
      </trkpt>
      <trkpt lat="43.41152" lon="5.48262">
        <ele>472</ele>
        <time>2013-04-25T15:27:49Z</time>
      </trkpt>
      <trkpt lat="43.41154" lon="5.4819">
        <ele>470</ele>
        <time>2013-04-25T15:27:56Z</time>
      </trkpt>
      <trkpt lat="43.41161" lon="5.48121">
        <ele>468</ele>
        <time>2013-04-25T15:28:02Z</time>
      </trkpt>
      <trkpt lat="43.41164" lon="5.48059">
        <ele>466</ele>
        <time>2013-04-25T15:28:09Z</time>
      </trkpt>
      <trkpt lat="43.4117" lon="5.47998">
        <ele>465</ele>
        <time>2013-04-25T15:28:29Z</time>
      </trkpt>
      <trkpt lat="43.41201" lon="5.47953">
        <ele>462</ele>
        <time>2013-04-25T15:28:39Z</time>
      </trkpt>
      <trkpt lat="43.41239" lon="5.47915">
        <ele>461</ele>
        <time>2013-04-25T15:28:47Z</time>
      </trkpt>
      <trkpt lat="43.41275" lon="5.47878">
        <ele>459</ele>
        <time>2013-04-25T15:28:57Z</time>
      </trkpt>
      <trkpt lat="43.41314" lon="5.47838">
        <ele>453</ele>
        <time>2013-04-25T15:29:13Z</time>
      </trkpt>
      <trkpt lat="43.41351" lon="5.478">
        <ele>448</ele>
        <time>2013-04-25T15:29:20Z</time>
      </trkpt>
      <trkpt lat="43.4139" lon="5.47767">
        <ele>443</ele>
        <time>2013-04-25T15:29:27Z</time>
      </trkpt>
      <trkpt lat="43.41437" lon="5.47723">
        <ele>439</ele>
        <time>2013-04-25T15:29:33Z</time>
      </trkpt>
      <trkpt lat="43.4138" lon="5.47715">
        <ele>435</ele>
        <time>2013-04-25T15:29:41Z</time>
      </trkpt>
      <trkpt lat="43.41332" lon="5.47719">
        <ele>432</ele>
        <time>2013-04-25T15:29:54Z</time>
      </trkpt>
      <trkpt lat="43.41287" lon="5.47726">
        <ele>431</ele>
        <time>2013-04-25T15:30:15Z</time>
      </trkpt>
      <trkpt lat="43.41243" lon="5.47711">
        <ele>433</ele>
        <time>2013-04-25T15:30:56Z</time>
      </trkpt>
      <trkpt lat="43.41214" lon="5.47663">
        <ele>434</ele>
        <time>2013-04-25T15:31:25Z</time>
      </trkpt>
      <trkpt lat="43.41169" lon="5.47641">
        <ele>436</ele>
        <time>2013-04-25T15:31:40Z</time>
      </trkpt>
      <trkpt lat="43.41124" lon="5.47618">
        <ele>437</ele>
        <time>2013-04-25T15:31:54Z</time>
      </trkpt>
      <trkpt lat="43.41139" lon="5.47559">
        <ele>436</ele>
        <time>2013-04-25T15:32:04Z</time>
      </trkpt>
      <trkpt lat="43.4114" lon="5.47494">
        <ele>435</ele>
        <time>2013-04-25T15:32:13Z</time>
      </trkpt>
      <trkpt lat="43.4115" lon="5.47426">
        <ele>433</ele>
        <time>2013-04-25T15:32:24Z</time>
      </trkpt>
      <trkpt lat="43.41112" lon="5.47384">
        <ele>430</ele>
        <time>2013-04-25T15:32:34Z</time>
      </trkpt>
      <trkpt lat="43.41127" lon="5.47323">
        <ele>426</ele>
        <time>2013-04-25T15:32:51Z</time>
      </trkpt>
      <trkpt lat="43.41159" lon="5.47271">
        <ele>425</ele>
        <time>2013-04-25T15:33:01Z</time>
      </trkpt>
      <trkpt lat="43.41178" lon="5.47214">
        <ele>423</ele>
        <time>2013-04-25T15:33:11Z</time>
      </trkpt>
      <trkpt lat="43.41189" lon="5.47144">
        <ele>422</ele>
        <time>2013-04-25T15:33:21Z</time>
      </trkpt>
      <trkpt lat="43.41204" lon="5.47072">
        <ele>421</ele>
        <time>2013-04-25T15:33:29Z</time>
      </trkpt>
      <trkpt lat="43.41222" lon="5.4701">
        <ele>420</ele>
        <time>2013-04-25T15:33:35Z</time>
      </trkpt>
      <trkpt lat="43.41242" lon="5.46945">
        <ele>419</ele>
        <time>2013-04-25T15:33:41Z</time>
      </trkpt>
      <trkpt lat="43.41244" lon="5.46875">
        <ele>417</ele>
        <time>2013-04-25T15:33:48Z</time>
      </trkpt>
      <trkpt lat="43.41226" lon="5.4681">
        <ele>415</ele>
        <time>2013-04-25T15:33:55Z</time>
      </trkpt>
      <trkpt lat="43.41243" lon="5.4675">
        <ele>413</ele>
        <time>2013-04-25T15:34:01Z</time>
      </trkpt>
      <trkpt lat="43.4128" lon="5.46704">
        <ele>412</ele>
        <time>2013-04-25T15:34:08Z</time>
      </trkpt>
      <trkpt lat="43.41314" lon="5.46651">
        <ele>411</ele>
        <time>2013-04-25T15:34:17Z</time>
      </trkpt>
      <trkpt lat="43.41316" lon="5.4658">
        <ele>409</ele>
        <time>2013-04-25T15:34:27Z</time>
      </trkpt>
      <trkpt lat="43.41362" lon="5.46562">
        <ele>407</ele>
        <time>2013-04-25T15:34:41Z</time>
      </trkpt>
      <trkpt lat="43.41402" lon="5.46528">
        <ele>404</ele>
        <time>2013-04-25T15:34:54Z</time>
      </trkpt>
      <trkpt lat="43.41437" lon="5.46486">
        <ele>374</ele>
        <time>2013-04-25T15:36:06Z</time>
      </trkpt>
      <trkpt lat="43.41471" lon="5.46446">
        <ele>377</ele>
        <time>2013-04-25T15:36:30Z</time>
      </trkpt>
      <trkpt lat="43.41482" lon="5.46382">
        <ele>378</ele>
        <time>2013-04-25T15:36:44Z</time>
      </trkpt>
      <trkpt lat="43.41483" lon="5.46316">
        <ele>380</ele>
        <time>2013-04-25T15:36:58Z</time>
      </trkpt>
      <trkpt lat="43.41473" lon="5.46255">
        <ele>380</ele>
        <time>2013-04-25T15:37:07Z</time>
      </trkpt>
      <trkpt lat="43.41455" lon="5.46197">
        <ele>380</ele>
        <time>2013-04-25T15:37:16Z</time>
      </trkpt>
      <trkpt lat="43.41438" lon="5.46136">
        <ele>381</ele>
        <time>2013-04-25T15:37:23Z</time>
      </trkpt>
      <trkpt lat="43.41407" lon="5.46086">
        <ele>382</ele>
        <time>2013-04-25T15:37:30Z</time>
      </trkpt>
      <trkpt lat="43.41366" lon="5.46043">
        <ele>381</ele>
        <time>2013-04-25T15:37:38Z</time>
      </trkpt>
      <trkpt lat="43.41363" lon="5.45971">
        <ele>380</ele>
        <time>2013-04-25T15:37:45Z</time>
      </trkpt>
      <trkpt lat="43.41376" lon="5.45904">
        <ele>379</ele>
        <time>2013-04-25T15:37:53Z</time>
      </trkpt>
      <trkpt lat="43.41379" lon="5.45836">
        <ele>379</ele>
        <time>2013-04-25T15:38:04Z</time>
      </trkpt>
      <trkpt lat="43.41373" lon="5.45768">
        <ele>378</ele>
        <time>2013-04-25T15:38:15Z</time>
      </trkpt>
      <trkpt lat="43.41368" lon="5.45703">
        <ele>379</ele>
        <time>2013-04-25T15:38:25Z</time>
      </trkpt>
      <trkpt lat="43.41363" lon="5.45634">
        <ele>379</ele>
        <time>2013-04-25T15:38:34Z</time>
      </trkpt>
      <trkpt lat="43.41362" lon="5.45571">
        <ele>379</ele>
        <time>2013-04-25T15:38:40Z</time>
      </trkpt>
      <trkpt lat="43.41346" lon="5.455">
        <ele>378</ele>
        <time>2013-04-25T15:38:45Z</time>
      </trkpt>
      <trkpt lat="43.41338" lon="5.4543">
        <ele>377</ele>
        <time>2013-04-25T15:38:50Z</time>
      </trkpt>
      <trkpt lat="43.41334" lon="5.45359">
        <ele>376</ele>
        <time>2013-04-25T15:38:56Z</time>
      </trkpt>
      <trkpt lat="43.41312" lon="5.45297">
        <ele>376</ele>
        <time>2013-04-25T15:39:03Z</time>
      </trkpt>
      <trkpt lat="43.41273" lon="5.45261">
        <ele>374</ele>
        <time>2013-04-25T15:39:12Z</time>
      </trkpt>
      <trkpt lat="43.41251" lon="5.45207">
        <ele>374</ele>
        <time>2013-04-25T15:39:21Z</time>
      </trkpt>
      <trkpt lat="43.41225" lon="5.45152">
        <ele>373</ele>
        <time>2013-04-25T15:39:29Z</time>
      </trkpt>
      <trkpt lat="43.41214" lon="5.45091">
        <ele>373</ele>
        <time>2013-04-25T15:39:36Z</time>
      </trkpt>
      <trkpt lat="43.41203" lon="5.45026">
        <ele>371</ele>
        <time>2013-04-25T15:39:42Z</time>
      </trkpt>
      <trkpt lat="43.41209" lon="5.44963">
        <ele>370</ele>
        <time>2013-04-25T15:39:48Z</time>
      </trkpt>
      <trkpt lat="43.41241" lon="5.44908">
        <ele>369</ele>
        <time>2013-04-25T15:39:57Z</time>
      </trkpt>
      <trkpt lat="43.41252" lon="5.44844">
        <ele>369</ele>
        <time>2013-04-25T15:40:06Z</time>
      </trkpt>
      <trkpt lat="43.41255" lon="5.44778">
        <ele>368</ele>
        <time>2013-04-25T15:40:15Z</time>
      </trkpt>
      <trkpt lat="43.41259" lon="5.44706">
        <ele>367</ele>
        <time>2013-04-25T15:40:29Z</time>
      </trkpt>
      <trkpt lat="43.4126" lon="5.44644">
        <ele>366</ele>
        <time>2013-04-25T15:40:36Z</time>
      </trkpt>
      <trkpt lat="43.41252" lon="5.44582">
        <ele>365</ele>
        <time>2013-04-25T15:41:09Z</time>
      </trkpt>
      <trkpt lat="43.41254" lon="5.4452">
        <ele>363</ele>
        <time>2013-04-25T15:41:20Z</time>
      </trkpt>
      <trkpt lat="43.41262" lon="5.44453">
        <ele>361</ele>
        <time>2013-04-25T15:41:27Z</time>
      </trkpt>
      <trkpt lat="43.41271" lon="5.44387">
        <ele>359</ele>
        <time>2013-04-25T15:41:35Z</time>
      </trkpt>
      <trkpt lat="43.41282" lon="5.44317">
        <ele>357</ele>
        <time>2013-04-25T15:41:46Z</time>
      </trkpt>
      <trkpt lat="43.41291" lon="5.44252">
        <ele>354</ele>
        <time>2013-04-25T15:42:01Z</time>
      </trkpt>
      <trkpt lat="43.41292" lon="5.44187">
        <ele>353</ele>
        <time>2013-04-25T15:42:19Z</time>
      </trkpt>
      <trkpt lat="43.41298" lon="5.44124">
        <ele>351</ele>
        <time>2013-04-25T15:42:28Z</time>
      </trkpt>
      <trkpt lat="43.41341" lon="5.44101">
        <ele>349</ele>
        <time>2013-04-25T15:42:41Z</time>
      </trkpt>
      <trkpt lat="43.41388" lon="5.44104">
        <ele>345</ele>
        <time>2013-04-25T15:43:06Z</time>
      </trkpt>
      <trkpt lat="43.41436" lon="5.44105">
        <ele>342</ele>
        <time>2013-04-25T15:43:14Z</time>
      </trkpt>
      <trkpt lat="43.41482" lon="5.44079">
        <ele>340</ele>
        <time>2013-04-25T15:43:22Z</time>
      </trkpt>
      <trkpt lat="43.41499" lon="5.4402">
        <ele>338</ele>
        <time>2013-04-25T15:43:29Z</time>
      </trkpt>
      <trkpt lat="43.415" lon="5.43957">
        <ele>336</ele>
        <time>2013-04-25T15:43:36Z</time>
      </trkpt>
      <trkpt lat="43.41538" lon="5.43924">
        <ele>335</ele>
        <time>2013-04-25T15:43:43Z</time>
      </trkpt>
      <trkpt lat="43.41587" lon="5.43895">
        <ele>334</ele>
        <time>2013-04-25T15:43:51Z</time>
      </trkpt>
      <trkpt lat="43.41616" lon="5.43947">
        <ele>334</ele>
        <time>2013-04-25T15:44:11Z</time>
      </trkpt>
      <trkpt lat="43.41633" lon="5.44007">
        <ele>334</ele>
        <time>2013-04-25T15:44:23Z</time>
      </trkpt>
      <trkpt lat="43.41645" lon="5.44068">
        <ele>335</ele>
        <time>2013-04-25T15:44:37Z</time>
      </trkpt>
      <trkpt lat="43.4166" lon="5.4413">
        <ele>336</ele>
        <time>2013-04-25T15:44:50Z</time>
      </trkpt>
      <trkpt lat="43.4167" lon="5.44193">
        <ele>336</ele>
        <time>2013-04-25T15:45:03Z</time>
      </trkpt>
      <trkpt lat="43.41673" lon="5.44259">
        <ele>336</ele>
        <time>2013-04-25T15:45:14Z</time>
      </trkpt>
      <trkpt lat="43.41676" lon="5.44321">
        <ele>336</ele>
        <time>2013-04-25T15:45:26Z</time>
      </trkpt>
      <trkpt lat="43.41722" lon="5.44327">
        <ele>340</ele>
        <time>2013-04-25T15:45:54Z</time>
      </trkpt>
      <trkpt lat="43.41765" lon="5.44304">
        <ele>344</ele>
        <time>2013-04-25T15:46:27Z</time>
      </trkpt>
      <trkpt lat="43.41801" lon="5.44266">
        <ele>347</ele>
        <time>2013-04-25T15:47:14Z</time>
      </trkpt>
      <trkpt lat="43.41823" lon="5.44211">
        <ele>354</ele>
        <time>2013-04-25T15:48:00Z</time>
      </trkpt>
      <trkpt lat="43.41852" lon="5.44163">
        <ele>362</ele>
        <time>2013-04-25T15:48:42Z</time>
      </trkpt>
      <trkpt lat="43.41882" lon="5.44115">
        <ele>365</ele>
        <time>2013-04-25T15:49:07Z</time>
      </trkpt>
      <trkpt lat="43.419" lon="5.44057">
        <ele>367</ele>
        <time>2013-04-25T15:49:19Z</time>
      </trkpt>
      <trkpt lat="43.41925" lon="5.44003">
        <ele>370</ele>
        <time>2013-04-25T15:49:35Z</time>
      </trkpt>
      <trkpt lat="43.41953" lon="5.43951">
        <ele>372</ele>
        <time>2013-04-25T15:49:45Z</time>
      </trkpt>
      <trkpt lat="43.41973" lon="5.43892">
        <ele>373</ele>
        <time>2013-04-25T15:49:55Z</time>
      </trkpt>
      <trkpt lat="43.42017" lon="5.43867">
        <ele>372</ele>
        <time>2013-04-25T15:50:04Z</time>
      </trkpt>
      <trkpt lat="43.42033" lon="5.43803">
        <ele>370</ele>
        <time>2013-04-25T15:50:15Z</time>
      </trkpt>
      <trkpt lat="43.42046" lon="5.43736">
        <ele>367</ele>
        <time>2013-04-25T15:50:22Z</time>
      </trkpt>
      <trkpt lat="43.42054" lon="5.43673">
        <ele>365</ele>
        <time>2013-04-25T15:50:31Z</time>
      </trkpt>
      <trkpt lat="43.42064" lon="5.4361">
        <ele>362</ele>
        <time>2013-04-25T15:50:38Z</time>
      </trkpt>
      <trkpt lat="43.42075" lon="5.43549">
        <ele>361</ele>
        <time>2013-04-25T15:50:46Z</time>
      </trkpt>
      <trkpt lat="43.42071" lon="5.43479">
        <ele>360</ele>
        <time>2013-04-25T15:50:54Z</time>
      </trkpt>
      <trkpt lat="43.42068" lon="5.43415">
        <ele>359</ele>
        <time>2013-04-25T15:51:02Z</time>
      </trkpt>
      <trkpt lat="43.4209" lon="5.43356">
        <ele>358</ele>
        <time>2013-04-25T15:51:10Z</time>
      </trkpt>
      <trkpt lat="43.42093" lon="5.43284">
        <ele>355</ele>
        <time>2013-04-25T15:51:17Z</time>
      </trkpt>
      <trkpt lat="43.42081" lon="5.43225">
        <ele>354</ele>
        <time>2013-04-25T15:51:27Z</time>
      </trkpt>
      <trkpt lat="43.42075" lon="5.43159">
        <ele>352</ele>
        <time>2013-04-25T15:51:38Z</time>
      </trkpt>
      <trkpt lat="43.42066" lon="5.43092">
        <ele>349</ele>
        <time>2013-04-25T15:51:44Z</time>
      </trkpt>
      <trkpt lat="43.42082" lon="5.43024">
        <ele>346</ele>
        <time>2013-04-25T15:51:50Z</time>
      </trkpt>
      <trkpt lat="43.42116" lon="5.42978">
        <ele>344</ele>
        <time>2013-04-25T15:51:58Z</time>
      </trkpt>
      <trkpt lat="43.42168" lon="5.42974">
        <ele>338</ele>
        <time>2013-04-25T15:52:05Z</time>
      </trkpt>
      <trkpt lat="43.42214" lon="5.42961">
        <ele>334</ele>
        <time>2013-04-25T15:52:10Z</time>
      </trkpt>
      <trkpt lat="43.4226" lon="5.42951">
        <ele>332</ele>
        <time>2013-04-25T15:52:19Z</time>
      </trkpt>
      <trkpt lat="43.423" lon="5.42978">
        <ele>331</ele>
        <time>2013-04-25T15:52:28Z</time>
      </trkpt>
      <trkpt lat="43.42321" lon="5.43042">
        <ele>329</ele>
        <time>2013-04-25T15:52:36Z</time>
      </trkpt>
      <trkpt lat="43.42327" lon="5.43103">
        <ele>327</ele>
        <time>2013-04-25T15:52:42Z</time>
      </trkpt>
      <trkpt lat="43.42316" lon="5.43172">
        <ele>324</ele>
        <time>2013-04-25T15:52:49Z</time>
      </trkpt>
      <trkpt lat="43.4231" lon="5.43242">
        <ele>321</ele>
        <time>2013-04-25T15:52:55Z</time>
      </trkpt>
      <trkpt lat="43.42314" lon="5.43304">
        <ele>320</ele>
        <time>2013-04-25T15:53:05Z</time>
      </trkpt>
      <trkpt lat="43.42309" lon="5.43368">
        <ele>320</ele>
        <time>2013-04-25T15:53:23Z</time>
      </trkpt>
      <trkpt lat="43.42354" lon="5.43378">
        <ele>324</ele>
        <time>2013-04-25T15:54:02Z</time>
      </trkpt>
      <trkpt lat="43.424" lon="5.43369">
        <ele>328</ele>
        <time>2013-04-25T15:54:30Z</time>
      </trkpt>
      <trkpt lat="43.42438" lon="5.43328">
        <ele>330</ele>
        <time>2013-04-25T15:55:03Z</time>
      </trkpt>
      <trkpt lat="43.42464" lon="5.43275">
        <ele>331</ele>
        <time>2013-04-25T15:55:14Z</time>
      </trkpt>
      <trkpt lat="43.42462" lon="5.4321">
        <ele>332</ele>
        <time>2013-04-25T15:55:23Z</time>
      </trkpt>
      <trkpt lat="43.4246" lon="5.43145">
        <ele>332</ele>
        <time>2013-04-25T15:55:34Z</time>
      </trkpt>
      <trkpt lat="43.42457" lon="5.43078">
        <ele>330</ele>
        <time>2013-04-25T15:55:44Z</time>
      </trkpt>
      <trkpt lat="43.4246" lon="5.43015">
        <ele>329</ele>
        <time>2013-04-25T15:56:00Z</time>
      </trkpt>
      <trkpt lat="43.42473" lon="5.42952">
        <ele>327</ele>
        <time>2013-04-25T15:56:17Z</time>
      </trkpt>
      <trkpt lat="43.42515" lon="5.42925">
        <ele>303</ele>
        <time>2013-04-25T15:58:17Z</time>
      </trkpt>
      <trkpt lat="43.42551" lon="5.42862">
        <ele>288</ele>
        <time>2013-04-25T15:58:32Z</time>
      </trkpt>
      <trkpt lat="43.42593" lon="5.42821">
        <ele>287</ele>
        <time>2013-04-25T15:58:39Z</time>
      </trkpt>
      <trkpt lat="43.42635" lon="5.42782">
        <ele>285</ele>
        <time>2013-04-25T15:58:45Z</time>
      </trkpt>
      <trkpt lat="43.42659" lon="5.42729">
        <ele>286</ele>
        <time>2013-04-25T15:58:55Z</time>
      </trkpt>
      <trkpt lat="43.42686" lon="5.42781">
        <ele>283</ele>
        <time>2013-04-25T15:59:06Z</time>
      </trkpt>
      <trkpt lat="43.42662" lon="5.42839">
        <ele>280</ele>
        <time>2013-04-25T15:59:28Z</time>
      </trkpt>
      <trkpt lat="43.42626" lon="5.42881">
        <ele>278</ele>
        <time>2013-04-25T15:59:39Z</time>
      </trkpt>
      <trkpt lat="43.42673" lon="5.42867">
        <ele>274</ele>
        <time>2013-04-25T16:00:00Z</time>
      </trkpt>
      <trkpt lat="43.4271" lon="5.4283">
        <ele>272</ele>
        <time>2013-04-25T16:00:09Z</time>
      </trkpt>
      <trkpt lat="43.42731" lon="5.42774">
        <ele>271</ele>
        <time>2013-04-25T16:00:17Z</time>
      </trkpt>
      <trkpt lat="43.42744" lon="5.42715">
        <ele>269</ele>
        <time>2013-04-25T16:00:24Z</time>
      </trkpt>
      <trkpt lat="43.42746" lon="5.42652">
        <ele>266</ele>
        <time>2013-04-25T16:00:32Z</time>
      </trkpt>
      <trkpt lat="43.42738" lon="5.42587">
        <ele>263</ele>
        <time>2013-04-25T16:00:38Z</time>
      </trkpt>
      <trkpt lat="43.4274" lon="5.42516">
        <ele>261</ele>
        <time>2013-04-25T16:00:46Z</time>
      </trkpt>
      <trkpt lat="43.42712" lon="5.42467">
        <ele>258</ele>
        <time>2013-04-25T16:00:53Z</time>
      </trkpt>
      <trkpt lat="43.42685" lon="5.42414">
        <ele>253</ele>
        <time>2013-04-25T16:01:07Z</time>
      </trkpt>
      <trkpt lat="43.42697" lon="5.42354">
        <ele>249</ele>
        <time>2013-04-25T16:01:55Z</time>
      </trkpt>
      <trkpt lat="43.42735" lon="5.42314">
        <ele>246</ele>
        <time>2013-04-25T16:02:10Z</time>
      </trkpt>
      <trkpt lat="43.42767" lon="5.42359">
        <ele>244</ele>
        <time>2013-04-25T16:02:24Z</time>
      </trkpt>
      <trkpt lat="43.42795" lon="5.42409">
        <ele>242</ele>
        <time>2013-04-25T16:02:35Z</time>
      </trkpt>
      <trkpt lat="43.42823" lon="5.42462">
        <ele>240</ele>
        <time>2013-04-25T16:02:46Z</time>
      </trkpt>
      <trkpt lat="43.42855" lon="5.4241">
        <ele>238</ele>
        <time>2013-04-25T16:03:09Z</time>
      </trkpt>
      <trkpt lat="43.42865" lon="5.42339">
        <ele>237</ele>
        <time>2013-04-25T16:03:16Z</time>
      </trkpt>
      <trkpt lat="43.4288" lon="5.42275">
        <ele>237</ele>
        <time>2013-04-25T16:03:22Z</time>
      </trkpt>
      <trkpt lat="43.42879" lon="5.42213">
        <ele>237</ele>
        <time>2013-04-25T16:03:28Z</time>
      </trkpt>
      <trkpt lat="43.42879" lon="5.42148">
        <ele>235</ele>
        <time>2013-04-25T16:03:34Z</time>
      </trkpt>
      <trkpt lat="43.42881" lon="5.42077">
        <ele>235</ele>
        <time>2013-04-25T16:03:41Z</time>
      </trkpt>
      <trkpt lat="43.42882" lon="5.4201">
        <ele>234</ele>
        <time>2013-04-25T16:03:48Z</time>
      </trkpt>
      <trkpt lat="43.42895" lon="5.41947">
        <ele>232</ele>
        <time>2013-04-25T16:03:55Z</time>
      </trkpt>
      <trkpt lat="43.42888" lon="5.4188">
        <ele>229</ele>
        <time>2013-04-25T16:04:03Z</time>
      </trkpt>
      <trkpt lat="43.4288" lon="5.41814">
        <ele>227</ele>
        <time>2013-04-25T16:04:11Z</time>
      </trkpt>
      <trkpt lat="43.42881" lon="5.4175">
        <ele>226</ele>
        <time>2013-04-25T16:04:19Z</time>
      </trkpt>
      <trkpt lat="43.42878" lon="5.41687">
        <ele>223</ele>
        <time>2013-04-25T16:04:31Z</time>
      </trkpt>
      <trkpt lat="43.42875" lon="5.41622">
        <ele>223</ele>
        <time>2013-04-25T16:04:41Z</time>
      </trkpt>
      <trkpt lat="43.42876" lon="5.41555">
        <ele>223</ele>
        <time>2013-04-25T16:04:51Z</time>
      </trkpt>
      <trkpt lat="43.42878" lon="5.41489">
        <ele>222</ele>
        <time>2013-04-25T16:05:00Z</time>
      </trkpt>
      <trkpt lat="43.42869" lon="5.41419">
        <ele>222</ele>
        <time>2013-04-25T16:05:08Z</time>
      </trkpt>
      <trkpt lat="43.4287" lon="5.41357">
        <ele>221</ele>
        <time>2013-04-25T16:05:15Z</time>
      </trkpt>
      <trkpt lat="43.42874" lon="5.41296">
        <ele>220</ele>
        <time>2013-04-25T16:05:20Z</time>
      </trkpt>
      <trkpt lat="43.42872" lon="5.41226">
        <ele>220</ele>
        <time>2013-04-25T16:05:26Z</time>
      </trkpt>
      <trkpt lat="43.42879" lon="5.41165">
        <ele>219</ele>
        <time>2013-04-25T16:05:32Z</time>
      </trkpt>
      <trkpt lat="43.42888" lon="5.41092">
        <ele>216</ele>
        <time>2013-04-25T16:05:38Z</time>
      </trkpt>
      <trkpt lat="43.42896" lon="5.41031">
        <ele>215</ele>
        <time>2013-04-25T16:05:43Z</time>
      </trkpt>
      <trkpt lat="43.42896" lon="5.40956">
        <ele>214</ele>
        <time>2013-04-25T16:05:49Z</time>
      </trkpt>
      <trkpt lat="43.42893" lon="5.4089">
        <ele>212</ele>
        <time>2013-04-25T16:05:55Z</time>
      </trkpt>
      <trkpt lat="43.42884" lon="5.40829">
        <ele>212</ele>
        <time>2013-04-25T16:06:01Z</time>
      </trkpt>
      <trkpt lat="43.42864" lon="5.40768">
        <ele>211</ele>
        <time>2013-04-25T16:06:08Z</time>
      </trkpt>
      <trkpt lat="43.42845" lon="5.40709">
        <ele>211</ele>
        <time>2013-04-25T16:06:16Z</time>
      </trkpt>
      <trkpt lat="43.42827" lon="5.40649">
        <ele>211</ele>
        <time>2013-04-25T16:06:24Z</time>
      </trkpt>
      <trkpt lat="43.42809" lon="5.40586">
        <ele>211</ele>
        <time>2013-04-25T16:06:32Z</time>
      </trkpt>
      <trkpt lat="43.42789" lon="5.40526">
        <ele>211</ele>
        <time>2013-04-25T16:06:39Z</time>
      </trkpt>
      <trkpt lat="43.4276" lon="5.40469">
        <ele>210</ele>
        <time>2013-04-25T16:06:45Z</time>
      </trkpt>
      <trkpt lat="43.42763" lon="5.40402">
        <ele>209</ele>
        <time>2013-04-25T16:06:51Z</time>
      </trkpt>
      <trkpt lat="43.42778" lon="5.40336">
        <ele>207</ele>
        <time>2013-04-25T16:06:57Z</time>
      </trkpt>
      <trkpt lat="43.42756" lon="5.4028">
        <ele>207</ele>
        <time>2013-04-25T16:07:04Z</time>
      </trkpt>
      <trkpt lat="43.42796" lon="5.40225">
        <ele>206</ele>
        <time>2013-04-25T16:07:22Z</time>
      </trkpt>
      <trkpt lat="43.42842" lon="5.40235">
        <ele>207</ele>
        <time>2013-04-25T16:07:32Z</time>
      </trkpt>
      <trkpt lat="43.42883" lon="5.40268">
        <ele>206</ele>
        <time>2013-04-25T16:07:39Z</time>
      </trkpt>
      <trkpt lat="43.42902" lon="5.4033">
        <ele>206</ele>
        <time>2013-04-25T16:07:45Z</time>
      </trkpt>
      <trkpt lat="43.42875" lon="5.40382">
        <ele>205</ele>
        <time>2013-04-25T16:07:51Z</time>
      </trkpt>
      <trkpt lat="43.42931" lon="5.40367">
        <ele>204</ele>
        <time>2013-04-25T16:08:03Z</time>
      </trkpt>
      <trkpt lat="43.42976" lon="5.40333">
        <ele>202</ele>
        <time>2013-04-25T16:08:09Z</time>
      </trkpt>
      <trkpt lat="43.43009" lon="5.40279">
        <ele>200</ele>
        <time>2013-04-25T16:08:14Z</time>
      </trkpt>
      <trkpt lat="43.43051" lon="5.40251">
        <ele>198</ele>
        <time>2013-04-25T16:08:19Z</time>
      </trkpt>
      <trkpt lat="43.43101" lon="5.4026">
        <ele>197</ele>
        <time>2013-04-25T16:08:24Z</time>
      </trkpt>
      <trkpt lat="43.43145" lon="5.40296">
        <ele>196</ele>
        <time>2013-04-25T16:08:30Z</time>
      </trkpt>
      <trkpt lat="43.43184" lon="5.40336">
        <ele>195</ele>
        <time>2013-04-25T16:08:36Z</time>
      </trkpt>
      <trkpt lat="43.43231" lon="5.4035">
        <ele>195</ele>
        <time>2013-04-25T16:08:42Z</time>
      </trkpt>
      <trkpt lat="43.43279" lon="5.40347">
        <ele>194</ele>
        <time>2013-04-25T16:08:48Z</time>
      </trkpt>
      <trkpt lat="43.4333" lon="5.40345">
        <ele>192</ele>
        <time>2013-04-25T16:08:54Z</time>
      </trkpt>
      <trkpt lat="43.43381" lon="5.4036">
        <ele>191</ele>
        <time>2013-04-25T16:09:01Z</time>
      </trkpt>
      <trkpt lat="43.43428" lon="5.40378">
        <ele>190</ele>
        <time>2013-04-25T16:09:08Z</time>
      </trkpt>
      <trkpt lat="43.43475" lon="5.40395">
        <ele>188</ele>
        <time>2013-04-25T16:09:15Z</time>
      </trkpt>
      <trkpt lat="43.43524" lon="5.404">
        <ele>187</ele>
        <time>2013-04-25T16:09:22Z</time>
      </trkpt>
      <trkpt lat="43.43568" lon="5.40389">
        <ele>187</ele>
        <time>2013-04-25T16:09:28Z</time>
      </trkpt>
      <trkpt lat="43.43602" lon="5.40447">
        <ele>187</ele>
        <time>2013-04-25T16:09:37Z</time>
      </trkpt>
      <trkpt lat="43.43584" lon="5.40508">
        <ele>186</ele>
        <time>2013-04-25T16:09:46Z</time>
      </trkpt>
      <trkpt lat="43.43563" lon="5.40566">
        <ele>186</ele>
        <time>2013-04-25T16:09:55Z</time>
      </trkpt>
      <trkpt lat="43.43535" lon="5.40622">
        <ele>186</ele>
        <time>2013-04-25T16:10:04Z</time>
      </trkpt>
      <trkpt lat="43.43508" lon="5.40675">
        <ele>186</ele>
        <time>2013-04-25T16:10:14Z</time>
      </trkpt>
      <trkpt lat="43.43483" lon="5.4073">
        <ele>187</ele>
        <time>2013-04-25T16:10:24Z</time>
      </trkpt>
      <trkpt lat="43.43463" lon="5.40788">
        <ele>188</ele>
        <time>2013-04-25T16:10:34Z</time>
      </trkpt>
      <trkpt lat="43.43454" lon="5.4085">
        <ele>189</ele>
        <time>2013-04-25T16:10:45Z</time>
      </trkpt>
      <trkpt lat="43.43446" lon="5.40916">
        <ele>190</ele>
        <time>2013-04-25T16:10:58Z</time>
      </trkpt>
      <trkpt lat="43.4345" lon="5.40982">
        <ele>191</ele>
        <time>2013-04-25T16:11:11Z</time>
      </trkpt>
      <trkpt lat="43.435" lon="5.40973">
        <ele>191</ele>
        <time>2013-04-25T16:11:19Z</time>
      </trkpt>
      <trkpt lat="43.43549" lon="5.40962">
        <ele>191</ele>
        <time>2013-04-25T16:11:28Z</time>
      </trkpt>
      <trkpt lat="43.43597" lon="5.40953">
        <ele>191</ele>
        <time>2013-04-25T16:11:36Z</time>
      </trkpt>
      <trkpt lat="43.43647" lon="5.40942">
        <ele>191</ele>
        <time>2013-04-25T16:11:44Z</time>
      </trkpt>
      <trkpt lat="43.43697" lon="5.40928">
        <ele>191</ele>
        <time>2013-04-25T16:11:52Z</time>
      </trkpt>
      <trkpt lat="43.43732" lon="5.40969">
        <ele>191</ele>
        <time>2013-04-25T16:11:59Z</time>
      </trkpt>
      <trkpt lat="43.43772" lon="5.41001">
        <ele>191</ele>
        <time>2013-04-25T16:12:09Z</time>
      </trkpt>
      <trkpt lat="43.43818" lon="5.41007">
        <ele>192</ele>
        <time>2013-04-25T16:12:24Z</time>
      </trkpt>
      <trkpt lat="43.43859" lon="5.40971">
        <ele>193</ele>
        <time>2013-04-25T16:12:38Z</time>
      </trkpt>
      <trkpt lat="43.4389" lon="5.40923">
        <ele>192</ele>
        <time>2013-04-25T16:12:48Z</time>
      </trkpt>
      <trkpt lat="43.43925" lon="5.40884">
        <ele>193</ele>
        <time>2013-04-25T16:13:04Z</time>
      </trkpt>
      <trkpt lat="43.43963" lon="5.40849">
        <ele>194</ele>
        <time>2013-04-25T16:13:17Z</time>
      </trkpt>
      <trkpt lat="43.44009" lon="5.40854">
        <ele>194</ele>
        <time>2013-04-25T16:13:36Z</time>
      </trkpt>
      <trkpt lat="43.44043" lon="5.40896">
        <ele>193</ele>
        <time>2013-04-25T16:13:51Z</time>
      </trkpt>
      <trkpt lat="43.44085" lon="5.40934">
        <ele>192</ele>
        <time>2013-04-25T16:14:24Z</time>
      </trkpt>
      <trkpt lat="43.44124" lon="5.40901">
        <ele>190</ele>
        <time>2013-04-25T16:14:57Z</time>
      </trkpt>
      <trkpt lat="43.44099" lon="5.40849">
        <ele>186</ele>
        <time>2013-04-25T16:18:26Z</time>
      </trkpt>
    </trkseg>
  </trk>
  <rte>
    <name><![CDATA[Etoile-Pilon-Grand Puech ]]></name>
    <cmt><![CDATA[25 avr. 2013 13:55:50]]></cmt>
    <desc><![CDATA[]]></desc>
      <rtept lat="43.44058" lon="5.40849">
        <ele>139</ele>
      </rtept>
      <rtept lat="43.44099" lon="5.40849">
        <ele>186</ele>
      </rtept>
    </rte>
</gpx>